M I D A S
Marine Information and Data Acquisition System
Tripno 1763 of the Zeeleeuw from 2009-07-13 06:44:58 to 2009-07-13 15:15:57
Back to CruiseResearch ActivitiesStationsMapUnderway DataData graphs

EquipmentUnitsComment
TimeDGPSUTC
LatitudeDGPSDM.mWGS84
LongitudeDGPSDM.mWGS84
TemperatureSBE03/SBE38deg celciusITS90
ConductivitySBE21S/mITS90
SalinitySBE21 Practical Salinity Units
ChlorophylAChelsea fluorimeterg/lCalibrated in Aceton
Missing or incorrect values are displayed as -999
Sea surface data collected by the RV Zeeleeuw from 2009-07-13 06:47:44 to 2009-07-13 15:25:07
                                                                                    Next 1000 lines
Time Latitude Longitude Temperature Conductivity Salinity ChlorophylA
2009-07-13 06:47:53 51°13.662 2°55.956 21.7558 0.025537 0.132649 2.76043
2009-07-13 06:47:59 51°13.662 2°55.954 21.7232 0.025537 0.132651 2.76043
2009-07-13 06:48:04 51°13.663 2°55.951 21.7486 0.025537 0.132651 2.76043
2009-07-13 06:48:08 51°13.664 2°55.948 21.7672 0.025537 0.132655 2.76043
2009-07-13 06:48:13 51°13.665 2°55.944 21.7895 0.025537 0.132659 2.76043
2009-07-13 06:48:18 51°13.666 2°55.94 21.804 0.025537 0.132659 2.76043
2009-07-13 06:48:24 51°13.668 2°55.934 21.8095 0.025537 0.132663 2.76043
2009-07-13 06:48:29 51°13.669 2°55.929 21.8026 0.025537 0.132665 2.76043
2009-07-13 06:48:34 51°13.671 2°55.923 21.8055 0.025537 0.132665 2.76043
2009-07-13 06:48:39 51°13.672 2°55.918 21.7967 0.025537 0.132667 2.76043
2009-07-13 06:48:44 51°13.674 2°55.912 21.8015 0.025537 0.132671 2.76043
2009-07-13 06:48:49 51°13.675 2°55.905 21.8079 0.025537 0.132671 2.76043
2009-07-13 06:48:54 51°13.677 2°55.898 21.8086 0.025537 0.132676 2.76043
2009-07-13 06:48:59 51°13.678 2°55.891 21.8087 0.025537 0.132678 2.76043
2009-07-13 06:49:04 51°13.68 2°55.884 21.8038 0.025537 0.132678 2.76043
2009-07-13 06:49:09 51°13.681 2°55.877 21.8042 0.025537 0.132678 2.76043
2009-07-13 06:49:14 51°13.683 2°55.869 21.8051 0.025537 0.132684 2.725606
2009-07-13 06:49:19 51°13.684 2°55.862 21.8069 0.025537 0.132682 2.76043
2009-07-13 06:49:24 51°13.686 2°55.854 21.8123 0.025537 0.132688 2.76043
2009-07-13 06:49:29 51°13.687 2°55.847 21.8154 0.025537 0.132686 2.76043
2009-07-13 06:49:34 51°13.688 2°55.839 21.813 0.025537 0.132686 2.76043
2009-07-13 06:49:39 51°13.689 2°55.832 21.8103 0.025537 0.13269 2.76043
2009-07-13 06:49:44 51°13.69 2°55.825 21.8125 0.025537 0.13269 2.76043
2009-07-13 06:49:49 51°13.691 2°55.818 21.8136 0.025537 0.132694 2.76043
2009-07-13 06:49:54 51°13.692 2°55.811 21.8147 0.025537 0.132694 2.76043
2009-07-13 06:49:59 51°13.692 2°55.804 21.8184 0.025537 0.132696 2.76043
2009-07-13 06:50:04 51°13.693 2°55.797 21.8203 0.025537 0.132696 2.76043
2009-07-13 06:50:09 51°13.693 2°55.791 21.817 0.025537 0.132698 2.76043
2009-07-13 06:50:14 51°13.693 2°55.785 21.8156 0.025537 0.132698 2.76043
2009-07-13 06:50:19 51°13.694 2°55.779 21.8131 0.025537 0.132704 2.76043
2009-07-13 06:50:24 51°13.694 2°55.774 21.8188 0.025537 0.132702 2.76043
2009-07-13 06:50:29 51°13.694 2°55.769 21.5343 0.025537 0.132708 3.213142
2009-07-13 06:50:33 51°13.694 2°55.764 21.0345 0.025537 0.132708 3.213142
2009-07-13 06:50:38 51°13.694 2°55.759 20.8299 0.025537 0.132774 8.506398
2009-07-13 06:50:43 51°13.694 2°55.755 20.6447 0.025537 0.132831 8.123334
2009-07-13 06:50:48 51°13.694 2°55.75 20.5753 4.108074 28.581715 7.531325
2009-07-13 06:50:53 51°13.694 2°55.746 20.5078 4.662341 32.736726 5.267761
2009-07-13 06:50:57 51°13.694 2°55.743 20.4842 4.73619 33.364559 4.083744
2009-07-13 06:51:02 51°13.694 2°55.741 20.4655 4.73619 33.364559 4.083744
2009-07-13 06:51:07 51°13.695 2°55.738 20.4483 4.548736 31.943329 3.387263
2009-07-13 06:51:12 51°13.695 2°55.737 20.438 4.512503 31.792146 3.213142
2009-07-13 06:51:17 51°13.695 2°55.736 20.4074 4.35036 30.648283 3.213142
2009-07-13 06:51:22 51°13.695 2°55.735 20.4015 4.232992 29.823117 3.28279
2009-07-13 06:51:27 51°13.696 2°55.735 20.4009 4.174061 29.437671 3.073846
2009-07-13 06:51:32 51°13.697 2°55.735 20.3912 4.174061 29.437671 3.073846
2009-07-13 06:51:36 51°13.698 2°55.735 20.3675 4.131215 29.148876 2.969374
2009-07-13 06:51:41 51°13.699 2°55.736 20.3598 4.100614 28.940285 2.969374
2009-07-13 06:51:46 51°13.701 2°55.736 20.3672 4.08298 28.828759 2.93455
2009-07-13 06:51:51 51°13.702 2°55.737 20.3434 4.068355 28.737664 2.969374
2009-07-13 06:51:56 51°13.704 2°55.738 20.3428 4.063584 28.715181 2.969374
2009-07-13 06:52:00 51°13.706 2°55.739 20.3311 4.063584 28.715181 2.969374
2009-07-13 06:52:05 51°13.709 2°55.74 20.3275 4.065244 28.738613 2.969374
2009-07-13 06:52:10 51°13.712 2°55.741 20.326 4.057361 28.687996 3.004198
2009-07-13 06:52:16 51°13.716 2°55.741 20.3275 4.05954 28.714999 3.004198
2009-07-13 06:52:20 51°13.719 2°55.741 20.3289 4.063481 28.752271 3.004198
2009-07-13 06:52:25 51°13.722 2°55.74 20.3188 4.05954 28.731104 3.004198
2009-07-13 06:52:30 51°13.726 2°55.738 20.3168 4.05954 28.731104 3.004198
2009-07-13 06:52:35 51°13.731 2°55.736 20.3195 4.059747 28.738458 3.039022
2009-07-13 06:52:40 51°13.735 2°55.733 20.3189 4.063274 28.772495 3.039022
2009-07-13 06:52:45 51°13.74 2°55.728 20.3137 4.062237 28.769528 3.073846
2009-07-13 06:52:51 51°13.746 2°55.722 20.3037 4.066386 28.80641 3.073846
2009-07-13 06:52:55 51°13.75 2°55.718 20.3073 4.069602 28.8349 3.073846
2009-07-13 06:53:00 51°13.756 2°55.711 20.3147 4.069602 28.8349 3.073846
2009-07-13 06:53:05 51°13.761 2°55.704 20.3118 3.694577 25.900761 3.10867
2009-07-13 06:53:11 51°13.769 2°55.695 20.3149 4.078211 28.907003 3.10867
2009-07-13 06:53:16 51°13.776 2°55.688 20.3138 4.081427 28.935 3.143494
2009-07-13 06:53:20 51°13.782 2°55.682 20.3178 4.082671 28.947447 3.143494
2009-07-13 06:53:25 51°13.789 2°55.674 20.3112 4.084227 28.962354 3.178318
2009-07-13 06:53:30 51°13.797 2°55.666 20.2997 4.084227 28.962354 3.178318
2009-07-13 06:53:35 51°13.805 2°55.657 20.2499 4.086613 28.981715 3.178318
2009-07-13 06:53:40 51°13.814 2°55.649 20.2198 4.089206 29.001667 3.213142
2009-07-13 06:53:45 51°13.823 2°55.64 20.2272 4.091592 29.020507 3.247966
2009-07-13 06:53:51 51°13.834 2°55.629 20.2369 4.094082 29.038589 3.247966
2009-07-13 06:53:56 51°13.844 2°55.62 20.2538 4.0946 29.043212 3.317614
2009-07-13 06:54:00 51°13.852 2°55.613 20.2678 4.0946 29.043212 3.317614
2009-07-13 06:54:05 51°13.862 2°55.604 20.2456 4.095534 29.054271 3.422087
2009-07-13 06:54:10 51°13.873 2°55.595 20.2068 4.101758 29.117164 3.561383
2009-07-13 06:54:15 51°13.883 2°55.586 20.1667 4.106219 29.168829 3.596207
2009-07-13 06:54:20 51°13.894 2°55.578 20.1338 4.11234 29.227862 3.561383
2009-07-13 06:54:24 51°13.903 2°55.57 20.0966 4.11068 29.214724 3.526559
2009-07-13 06:54:30 51°13.916 2°55.56 20.0608 4.11068 29.214724 3.526559
2009-07-13 06:54:35 51°13.927 2°55.551 20.0421 4.109124 29.198698 3.526559
2009-07-13 06:54:40 51°13.938 2°55.543 20.0232 4.110369 29.21014 3.665855
2009-07-13 06:54:44 51°13.948 2°55.536 19.9896 4.11929 29.291395 3.839975
2009-07-13 06:54:50 51°13.962 2°55.526 19.9533 4.13205 29.413853 4.014096
2009-07-13 06:54:55 51°13.973 2°55.517 19.9334 4.140454 29.504642 4.188216
2009-07-13 06:55:00 51°13.985 2°55.509 19.8855 4.140454 29.504642 4.188216
2009-07-13 06:55:05 51°13.996 2°55.5 19.8656 4.151347 29.617018 4.327512
2009-07-13 06:55:10 51°14.008 2°55.492 19.8455 4.16027 29.713406 4.39716
2009-07-13 06:55:15 51°14.02 2°55.484 19.8283 4.167117 29.786931 4.536456
2009-07-13 06:55:20 51°14.031 2°55.475 19.7986 4.177493 29.893067 4.675753
2009-07-13 06:55:25 51°14.043 2°55.466 19.7902 4.187038 29.992783 4.815049
2009-07-13 06:55:29 51°14.052 2°55.46 19.7738 4.187038 29.992783 4.815049
2009-07-13 06:55:35 51°14.066 2°55.449 19.7772 4.196377 30.091584 4.989169
2009-07-13 06:55:40 51°14.078 2°55.441 19.7484 4.201253 30.154321 5.058817
2009-07-13 06:55:45 51°14.09 2°55.432 19.708 4.205923 30.214954 5.198113
2009-07-13 06:55:51 51°14.104 2°55.422 19.7091 4.215261 30.313687 5.302586
2009-07-13 06:55:56 51°14.116 2°55.413 19.6961 4.220969 30.376754 5.372234
2009-07-13 06:56:00 51°14.126 2°55.406 19.6558 4.220969 30.376754 5.372234
2009-07-13 06:56:05 51°14.137 2°55.397 19.6392 4.225327 30.425715 5.441882
2009-07-13 06:56:11 51°14.151 2°55.385 19.6121 4.229062 30.468045 5.476706
2009-07-13 06:56:16 51°14.162 2°55.374 19.6086 4.235496 30.536603 5.616002
2009-07-13 06:56:20 51°14.172 2°55.366 19.5809 4.241099 30.598573 5.616002
2009-07-13 06:56:25 51°14.183 2°55.356 19.5753 4.245562 30.646911 5.720474
2009-07-13 06:56:30 51°14.194 2°55.345 19.5617 4.245562 30.646911 5.720474
2009-07-13 06:56:36 51°14.207 2°55.331 19.5588 4.251269 30.712127 5.790122
2009-07-13 06:56:40 51°14.215 2°55.321 19.5533 4.259882 30.802016 5.894594
2009-07-13 06:56:45 51°14.226 2°55.308 19.5482 4.263307 30.845596 5.894594
2009-07-13 06:56:50 51°14.236 2°55.294 19.5441 4.268392 30.905498 5.999067
2009-07-13 06:56:56 51°14.247 2°55.277 19.5348 4.269222 30.925361 5.999067
2009-07-13 06:57:00 51°14.254 2°55.265 19.5254 4.269222 30.925361 5.999067
2009-07-13 06:57:04 51°14.261 2°55.252 19.5171 4.274619 30.983892 6.068715
2009-07-13 06:57:10 51°14.272 2°55.234 19.5284 4.277317 31.017204 6.103539
2009-07-13 06:57:15 51°14.28 2°55.218 19.5268 4.276383 31.016541 6.103539
2009-07-13 06:57:20 51°14.289 2°55.202 19.5099 4.276798 31.026225 6.138363
2009-07-13 06:57:24 51°14.296 2°55.189 19.4991 4.279289 31.053296 6.208011
2009-07-13 06:57:30 51°14.306 2°55.169 19.4937 4.279289 31.053296 6.208011
2009-07-13 06:57:35 51°14.315 2°55.152 19.4945 4.284166 31.099142 6.242835
2009-07-13 06:57:40 51°14.323 2°55.135 19.492 4.287487 31.132977 6.277659
2009-07-13 06:57:45 51°14.332 2°55.119 19.4889 4.283855 31.107004 6.242835
2009-07-13 06:57:50 51°14.341 2°55.101 19.4824 4.286346 31.128922 6.347307
2009-07-13 06:57:55 51°14.349 2°55.085 19.4709 4.287591 31.147685 6.382131
2009-07-13 06:58:00 51°14.358 2°55.067 19.4667 4.287591 31.147685 6.382131
2009-07-13 06:58:06 51°14.368 2°55.047 19.468 4.289148 31.164356 6.382131
2009-07-13 06:58:11 51°14.377 2°55.03 19.4729 4.285516 31.140104 6.451779
2009-07-13 06:58:16 51°14.386 2°55.013 19.4708 4.290705 31.186244 6.486603
2009-07-13 06:58:20 51°14.393 2°54.999 19.4862 4.294337 31.219192 6.521427
2009-07-13 06:58:25 51°14.403 2°54.982 19.4792 4.294337 31.224991 6.6259
2009-07-13 06:58:31 51°14.414 2°54.961 19.4759 4.294337 31.224991 6.6259
2009-07-13 06:58:36 51°14.423 2°54.943 19.473 4.301083 31.284398 6.695548
2009-07-13 06:58:40 51°14.431 2°54.929 19.4794 4.300356 31.282568 6.730372
2009-07-13 06:58:45 51°14.441 2°54.912 19.4746 4.305753 31.32756 6.834844
2009-07-13 06:58:51 51°14.454 2°54.893 19.476 4.30264 31.302273 6.80002
2009-07-13 06:58:56 51°14.465 2°54.877 19.4778 4.301394 31.289833 6.80002
2009-07-13 06:59:00 51°14.474 2°54.865 19.4689 4.301394 31.289833 6.80002
2009-07-13 06:59:05 51°14.485 2°54.85 19.4634 4.29797 31.262024 6.834844
2009-07-13 06:59:11 51°14.499 2°54.832 19.4619 4.303158 31.304742 6.834844
2009-07-13 06:59:15 51°14.509 2°54.821 19.4597 4.302017 31.294889 6.904492
2009-07-13 06:59:20 51°14.521 2°54.808 19.4641 4.302121 31.297477 6.939316
2009-07-13 06:59:24 51°14.532 2°54.798 19.4583 4.303158 31.307069 6.97414
2009-07-13 06:59:30 51°14.547 2°54.783 19.455 4.303158 31.307069 6.97414
2009-07-13 06:59:36 51°14.563 2°54.769 19.4445 4.304508 31.319773 7.008964
2009-07-13 06:59:40 51°14.574 2°54.759 19.4493 4.305649 31.330793 7.078612
2009-07-13 06:59:44 51°14.585 2°54.749 19.4364 4.306479 31.340451 7.078612
2009-07-13 06:59:50 51°14.601 2°54.734 19.4279 4.307206 31.348101 7.14826
2009-07-13 06:59:55 51°14.614 2°54.721 19.4242 4.305546 31.336358 7.252733
2009-07-13 07:00:00 51°14.627 2°54.708 19.4338 4.305546 31.336358 7.252733
2009-07-13 07:00:04 51°14.638 2°54.698 19.4154 4.308867 31.366259 7.357205
2009-07-13 07:00:10 51°14.654 2°54.682 19.4124 4.312291 31.398181 7.426853
2009-07-13 07:00:15 51°14.667 2°54.669 19.3896 4.314782 31.421937 7.566149
2009-07-13 07:00:20 51°14.68 2°54.656 19.3756 4.315924 31.435897 7.670621
2009-07-13 07:00:25 51°14.694 2°54.642 19.3763 4.313537 31.421163 7.740269
2009-07-13 07:00:31 51°14.71 2°54.627 19.3793 4.313537 31.421163 7.740269
2009-07-13 07:00:35 51°14.721 2°54.616 19.3687 4.322151 31.494162 7.949214
2009-07-13 07:00:40 51°14.734 2°54.602 19.3597 4.321113 31.48982 8.192982
2009-07-13 07:00:45 51°14.748 2°54.588 19.3466 4.333567 31.596479 8.645695
2009-07-13 07:00:51 51°14.764 2°54.572 19.3367 4.343842 31.688419 9.028759
2009-07-13 07:00:56 51°14.778 2°54.558 19.3247 4.353183 31.774011 9.168055
2009-07-13 07:01:00 51°14.789 2°54.548 19.3181 4.353183 31.774011 9.168055
2009-07-13 07:01:05 51°14.803 2°54.534 19.3134 4.358269 31.820816 9.272528
2009-07-13 07:01:10 51°14.817 2°54.52 19.3076 4.361694 31.854097 9.516296
2009-07-13 07:01:16 51°14.833 2°54.504 19.2976 4.370413 31.930598 9.934185
2009-07-13 07:01:20 51°14.844 2°54.492 19.2874 4.38017 32.020405 10.247601
2009-07-13 07:01:25 51°14.858 2°54.479 19.2841 4.385775 32.073972 10.595842
2009-07-13 07:01:29 51°14.869 2°54.468 19.2755 4.385775 32.073972 10.595842
2009-07-13 07:01:35 51°14.886 2°54.452 19.2643 4.398646 32.189393 10.735138
2009-07-13 07:01:40 51°14.899 2°54.439 19.2522 4.406743 32.262248 11.01373
2009-07-13 07:01:45 51°14.913 2°54.425 19.2505 4.410583 32.300314 11.153027
2009-07-13 07:01:51 51°14.929 2°54.409 19.2324 4.417434 32.364263 11.327147
2009-07-13 07:01:55 51°14.94 2°54.399 19.2265 4.421483 32.404082 11.536091
2009-07-13 07:02:00 51°14.954 2°54.386 19.2166 4.421483 32.404082 11.536091
2009-07-13 07:02:05 51°14.967 2°54.373 19.2072 4.427815 32.463857 11.745035
2009-07-13 07:02:10 51°14.981 2°54.36 19.1861 4.434044 32.522214 11.988804
2009-07-13 07:02:15 51°14.995 2°54.347 19.1918 4.440688 32.585848 12.197748
2009-07-13 07:02:21 51°15.011 2°54.331 19.1783 4.445878 32.635158 12.476341
2009-07-13 07:02:26 51°15.025 2°54.318 19.1748 4.453145 32.705834 12.580813
2009-07-13 07:02:30 51°15.036 2°54.307 19.1743 4.453145 32.705834 12.580813
2009-07-13 07:02:35 51°15.049 2°54.294 19.1718 4.457817 32.751567 12.789757
2009-07-13 07:02:40 51°15.062 2°54.28 19.1634 4.468925 32.853938 12.963877
2009-07-13 07:02:45 51°15.076 2°54.267 19.1564 4.47505 32.911714 13.137998
2009-07-13 07:02:50 51°15.09 2°54.253 19.1559 4.479619 32.957947 13.06835
2009-07-13 07:02:56 51°15.106 2°54.237 19.1502 4.484706 33.007867 13.207646
2009-07-13 07:03:00 51°15.117 2°54.227 19.1487 4.484706 33.007867 13.207646
2009-07-13 07:03:05 51°15.13 2°54.213 19.1379 4.487094 33.031867 13.172822
2009-07-13 07:03:10 51°15.143 2°54.198 19.1296 4.488443 33.046703 13.24247
2009-07-13 07:03:16 51°15.159 2°54.182 19.1248 4.485433 33.026861 13.381766
2009-07-13 07:03:21 51°15.173 2°54.168 19.1095 4.495296 33.11434 13.346942
2009-07-13 07:03:25 51°15.183 2°54.158 19.1045 4.4927 33.096053 13.381766
2009-07-13 07:03:30 51°15.197 2°54.145 19.0957 4.4927 33.096053 13.381766
2009-07-13 07:03:35 51°15.21 2°54.131 19.0871 4.49976 33.157987 13.451414
2009-07-13 07:03:40 51°15.224 2°54.118 19.0699 4.502979 33.188889 13.660358
2009-07-13 07:03:45 51°15.237 2°54.105 19.0577 4.507236 33.232114 13.695182
2009-07-13 07:03:50 51°15.251 2°54.092 19.0529 4.511389 33.272634 13.869303
2009-07-13 07:03:55 51°15.264 2°54.079 19.0522 4.516788 33.325968 14.043423
2009-07-13 07:04:00 51°15.278 2°54.066 19.0477 4.516788 33.325968 14.043423
2009-07-13 07:04:05 51°15.291 2°54.053 19.0356 4.521149 33.370763 14.147895
2009-07-13 07:04:10 51°15.305 2°54.04 19.0387 4.525198 33.412387 14.252367
2009-07-13 07:04:15 51°15.318 2°54.027 19.0334 4.531117 33.469489 14.461312
2009-07-13 07:04:20 51°15.332 2°54.013 19.036 4.533816 33.501268 14.496136
2009-07-13 07:04:25 51°15.345 2°54 19.024 4.537762 33.543378 14.565784
2009-07-13 07:04:30 51°15.359 2°53.987 19.0232 4.537762 33.543378 14.565784
2009-07-13 07:04:35 51°15.372 2°53.974 19.0258 4.539008 33.560641 14.426488
2009-07-13 07:04:40 51°15.386 2°53.961 19.0118 4.54067 33.580718 14.565784
2009-07-13 07:04:45 51°15.399 2°53.948 19.008 4.541293 33.590306 14.600608
2009-07-13 07:04:50 51°15.413 2°53.934 19.0043 4.542227 33.60121 14.670256
2009-07-13 07:04:56 51°15.429 2°53.918 19.0033 4.542539 33.607589 14.774728
2009-07-13 07:05:01 51°15.442 2°53.905 18.9901 4.542539 33.607589 14.774728
2009-07-13 07:05:05 51°15.453 2°53.894 18.9857 4.544304 33.627281 14.809552
2009-07-13 07:05:10 51°15.466 2°53.881 18.9843 4.544512 33.631538 14.844376
2009-07-13 07:05:15 51°15.48 2°53.868 18.9819 4.545758 33.645668 14.8792
2009-07-13 07:05:20 51°15.493 2°53.855 18.9787 4.547004 33.660436 14.948848
2009-07-13 07:05:25 51°15.507 2°53.841 18.9788 4.547938 33.673262 15.053321
2009-07-13 07:05:30 51°15.52 2°53.828 18.971 4.547938 33.673262 15.053321
2009-07-13 07:05:35 51°15.533 2°53.815 18.9663 4.549392 33.689762 15.157793
2009-07-13 07:05:40 51°15.547 2°53.802 18.9648 4.551157 33.710122 15.192617
2009-07-13 07:05:45 51°15.56 2°53.789 18.9619 4.551988 33.722102 15.227441
2009-07-13 07:05:50 51°15.574 2°53.775 18.9687 4.553027 33.735172 15.331913
2009-07-13 07:05:56 51°15.59 2°53.759 18.9535 4.553546 33.743301 15.471209
2009-07-13 07:06:01 51°15.603 2°53.745 18.9553 4.553546 33.743301 15.471209
2009-07-13 07:06:05 51°15.614 2°53.735 18.9518 4.55448 33.753604 15.575681
2009-07-13 07:06:10 51°15.628 2°53.721 18.9502 4.555207 33.762823 15.575681
2009-07-13 07:06:15 51°15.641 2°53.708 18.951 4.556142 33.773768 15.610505
2009-07-13 07:06:21 51°15.658 2°53.691 18.9495 4.55635 33.778044 15.749802
2009-07-13 07:06:25 51°15.669 2°53.68 18.9503 4.55718 33.787492 15.958746
2009-07-13 07:06:30 51°15.682 2°53.666 18.9469 4.55718 33.787492 15.958746
2009-07-13 07:06:35 51°15.696 2°53.652 18.9487 4.558115 33.797805 15.99357
2009-07-13 07:06:40 51°15.71 2°53.638 18.9466 4.559049 33.809397 16.063218
2009-07-13 07:06:45 51°15.724 2°53.624 18.9509 4.559776 33.81735 16.16769
2009-07-13 07:06:50 51°15.738 2°53.611 18.9475 4.560088 33.821215 16.202514
2009-07-13 07:06:55 51°15.752 2°53.597 18.9433 4.560607 33.826806 16.16769
2009-07-13 07:07:00 51°15.766 2°53.583 18.9454 4.560607 33.826806 16.16769
2009-07-13 07:07:05 51°15.78 2°53.57 18.9415 4.56123 33.833898 16.202514
2009-07-13 07:07:10 51°15.794 2°53.557 18.9409 4.561542 33.837126 16.237338
2009-07-13 07:07:15 51°15.808 2°53.543 18.9389 4.561749 33.83949 16.132866
2009-07-13 07:07:20 51°15.822 2°53.529 18.9473 4.561749 33.83949 16.202514
2009-07-13 07:07:25 51°15.836 2°53.515 18.9397 4.562165 33.84358 16.132866
2009-07-13 07:07:30 51°15.85 2°53.502 18.9406 4.562165 33.84358 16.132866
2009-07-13 07:07:36 51°15.867 2°53.485 18.939 4.562684 33.849813 16.272162
2009-07-13 07:07:41 51°15.881 2°53.472 18.9426 4.562892 33.853458 16.376635
2009-07-13 07:07:45 51°15.893 2°53.461 18.9426 4.563203 33.857326 16.481107
2009-07-13 07:07:50 51°15.907 2°53.447 18.9447 4.563099 33.855823 16.515931
2009-07-13 07:07:55 51°15.921 2°53.434 18.9446 4.563307 33.857549 16.515931
2009-07-13 07:08:00 51°15.935 2°53.42 18.945 4.563307 33.857549 16.515931
2009-07-13 07:08:05 51°15.95 2°53.407 18.9511 4.563722 33.86164 16.655227
2009-07-13 07:08:10 51°15.964 2°53.393 18.9497 4.56393 33.864006 16.620403
2009-07-13 07:08:16 51°15.981 2°53.377 18.9513 4.564138 33.865731 16.585579
2009-07-13 07:08:21 51°15.995 2°53.363 18.9515 4.564242 33.865954 16.759699
2009-07-13 07:08:25 51°16.006 2°53.352 18.9518 4.564449 33.86704 16.864171
2009-07-13 07:08:30 51°16.02 2°53.337 18.9565 4.564449 33.86704 16.864171
2009-07-13 07:08:34 51°16.031 2°53.326 18.9572 4.564761 33.869628 16.898995
2009-07-13 07:08:41 51°16.051 2°53.308 18.9599 4.564657 33.866845 16.898995
2009-07-13 07:08:45 51°16.062 2°53.297 18.9634 4.564968 33.868153 17.003468
2009-07-13 07:08:50 51°16.077 2°53.283 18.964 4.56528 33.870101 17.003468
2009-07-13 07:08:55 51°16.091 2°53.27 18.9678 4.565591 33.87205 17.003468
2009-07-13 07:09:00 51°16.106 2°53.258 18.9724 4.565591 33.87205 17.003468
2009-07-13 07:09:05 51°16.12 2°53.245 18.9729 4.566007 33.87422 17.073116
2009-07-13 07:09:10 51°16.135 2°53.232 18.9762 4.566526 33.876614 17.038292
2009-07-13 07:09:15 51°16.149 2°53.219 18.9776 4.567045 33.879007 17.142764
2009-07-13 07:09:21 51°16.167 2°53.204 18.9775 4.567564 33.8814 17.212412
2009-07-13 07:09:25 51°16.178 2°53.193 18.9823 4.568187 33.884655 17.247236
2009-07-13 07:09:30 51°16.193 2°53.181 18.9851 4.568187 33.884655 17.247236
2009-07-13 07:09:35 51°16.208 2°53.168 18.9858 4.567668 33.877782 17.386532
2009-07-13 07:09:40 51°16.222 2°53.156 18.9873 4.568291 33.880397 17.386532
2009-07-13 07:09:45 51°16.237 2°53.143 18.9862 4.569641 33.889049 17.491004
2009-07-13 07:09:50 51°16.251 2°53.13 18.9898 4.568602 33.877865 17.595476
2009-07-13 07:09:55 51°16.266 2°53.118 18.9894 4.570056 33.888018 17.630301
2009-07-13 07:10:01 51°16.284 2°53.102 18.9926 4.570056 33.888018 17.630301
2009-07-13 07:10:05 51°16.296 2°53.093 18.9929 4.570471 33.889548 17.595476
2009-07-13 07:10:10 51°16.31 2°53.08 18.9937 4.571302 33.894527 17.769597
2009-07-13 07:10:16 51°16.328 2°53.066 18.9958 4.57234 33.901229 17.908893
2009-07-13 07:10:20 51°16.339 2°53.055 18.9962 4.573067 33.906625 17.978541
2009-07-13 07:10:25 51°16.355 2°53.045 18.9993 4.570783 33.886376 18.048189
2009-07-13 07:10:30 51°16.369 2°53.033 18.9991 4.570783 33.886376 18.048189
2009-07-13 07:10:36 51°16.388 2°53.02 18.9974 4.573898 33.910963 18.083013
2009-07-13 07:10:41 51°16.403 2°53.009 18.9984 4.570471 33.881231 18.117837
2009-07-13 07:10:45 51°16.415 2°53 18.9982 4.575559 33.922198 18.117837
2009-07-13 07:10:50 51°16.43 2°52.99 18.9986 4.576182 33.926091 18.117837
2009-07-13 07:10:54 51°16.443 2°52.981 18.9989 4.577324 33.934935 18.326782
2009-07-13 07:11:01 51°16.464 2°52.966 18.9984 4.577324 33.934935 18.326782
2009-07-13 07:11:05 51°16.476 2°52.957 18.9985 4.578155 33.940552 18.466078
2009-07-13 07:11:10 51°16.491 2°52.947 18.9975 4.578259 33.940774 18.361606
2009-07-13 07:11:14 51°16.503 2°52.938 18.9982 4.579817 33.953708 18.431254
2009-07-13 07:11:20 51°16.521 2°52.925 18.9966 4.580855 33.96169 18.326782
2009-07-13 07:11:25 51°16.536 2°52.914 18.9978 4.581582 33.968367 18.222309
2009-07-13 07:11:30 51°16.551 2°52.903 18.9973 4.581582 33.968367 18.222309
2009-07-13 07:11:35 51°16.566 2°52.893 18.9937 4.582205 33.9729 18.326782
2009-07-13 07:11:40 51°16.581 2°52.881 18.9936 4.582932 33.978937 18.431254
2009-07-13 07:11:45 51°16.596 2°52.87 18.9886 4.583347 33.982387 18.500902
2009-07-13 07:11:50 51°16.611 2°52.86 18.9865 4.578051 33.937768 18.466078
2009-07-13 07:11:55 51°16.627 2°52.849 18.979 4.584282 33.990148 18.535726
2009-07-13 07:12:00 51°16.642 2°52.838 18.9809 4.584282 33.990148 18.535726
2009-07-13 07:12:05 51°16.657 2°52.828 18.9775 4.58397 33.988203 18.291958
2009-07-13 07:12:10 51°16.672 2°52.817 18.9731 4.585632 34.002644 18.39643
2009-07-13 07:12:16 51°16.691 2°52.805 18.9706 4.586047 34.007378 18.291958
2009-07-13 07:12:20 51°16.703 2°52.796 18.9671 4.586359 34.011892 18.431254
2009-07-13 07:12:25 51°16.718 2°52.786 18.963 4.588228 34.030632 18.361606
2009-07-13 07:12:30 51°16.734 2°52.776 18.9615 4.588228 34.030632 18.361606
2009-07-13 07:12:36 51°16.752 2°52.764 18.956 4.588747 34.037517 18.431254
2009-07-13 07:12:41 51°16.767 2°52.754 18.9529 4.589993 34.051086 18.39643
2009-07-13 07:12:45 51°16.779 2°52.746 18.9496 4.590824 34.05992 18.500902
2009-07-13 07:12:50 51°16.794 2°52.736 18.9423 4.590409 34.059684 18.326782
2009-07-13 07:12:56 51°16.812 2°52.723 18.9377 4.591136 34.0683 18.431254
2009-07-13 07:13:01 51°16.827 2°52.713 18.9381 4.591136 34.0683 18.431254
2009-07-13 07:13:05 51°16.839 2°52.704 18.935 4.591863 34.078205 18.361606
2009-07-13 07:13:10 51°16.854 2°52.694 18.9323 4.592174 34.082727 18.361606
2009-07-13 07:13:15 51°16.869 2°52.683 18.9309 4.592901 34.091992 18.291958
2009-07-13 07:13:21 51°16.888 2°52.672 18.9289 4.593836 34.10492 18.257134
2009-07-13 07:13:25 51°16.9 2°52.664 18.9263 4.594147 34.111379 18.291958
2009-07-13 07:13:30 51°16.916 2°52.656 18.9197 4.594147 34.111379 18.291958
2009-07-13 07:13:35 51°16.931 2°52.647 18.9174 4.594771 34.119787 18.117837
2009-07-13 07:13:40 51°16.947 2°52.639 18.9159 4.595394 34.128196 18.187485
2009-07-13 07:13:45 51°16.963 2°52.631 18.9142 4.595601 34.132506 18.048189
2009-07-13 07:13:50 51°16.979 2°52.624 18.9129 4.595913 34.13768 18.048189
2009-07-13 07:13:55 51°16.995 2°52.617 18.9031 4.596536 34.144802 17.943717
2009-07-13 07:14:01 51°17.014 2°52.61 18.8974 4.596536 34.144802 17.943717
2009-07-13 07:14:05 51°17.027 2°52.605 18.8965 4.596848 34.150625 17.908893
2009-07-13 07:14:10 51°17.043 2°52.599 18.8939 4.597055 34.154937 17.804421
2009-07-13 07:14:15 51°17.059 2°52.593 18.8923 4.597367 34.160762 17.699949
2009-07-13 07:14:21 51°17.078 2°52.587 18.8864 4.597055 34.159461 17.665125
2009-07-13 07:14:25 51°17.091 2°52.582 18.8831 4.598302 34.173714 17.665125
2009-07-13 07:14:30 51°17.107 2°52.577 18.8765 4.598302 34.173714 17.665125
2009-07-13 07:14:35 51°17.123 2°52.572 18.8755 4.598302 34.177595 17.491004
2009-07-13 07:14:40 51°17.139 2°52.566 18.8712 4.598613 34.183424 17.525828
2009-07-13 07:14:45 51°17.155 2°52.562 18.8644 4.598717 34.188171 17.45618
2009-07-13 07:14:50 51°17.17 2°52.555 18.8623 4.599548 34.198975 17.421356
2009-07-13 07:14:56 51°17.19 2°52.55 18.8587 4.599548 34.201565 17.316884
2009-07-13 07:15:00 51°17.202 2°52.546 18.8528 4.599548 34.201565 17.316884
2009-07-13 07:15:05 51°17.219 2°52.542 18.8483 4.59986 34.208047 17.247236
2009-07-13 07:15:10 51°17.235 2°52.537 18.8449 4.600067 34.214313 17.142764
2009-07-13 07:15:16 51°17.254 2°52.533 18.8416 4.600068 34.218849 17.073116
2009-07-13 07:15:21 51°17.27 2°52.528 18.8389 4.600483 34.226201 17.038292
2009-07-13 07:15:25 51°17.283 2°52.525 18.8383 4.600172 34.226198 16.898995
2009-07-13 07:15:30 51°17.299 2°52.521 18.8378 4.600172 34.226198 16.898995
2009-07-13 07:15:34 51°17.312 2°52.517 18.8303 4.601002 34.238314 16.759699
2009-07-13 07:15:41 51°17.335 2°52.512 18.8314 4.601314 34.244805 16.690051
2009-07-13 07:15:45 51°17.347 2°52.509 18.8273 4.600795 34.24437 16.690051
2009-07-13 07:15:50 51°17.364 2°52.504 18.8279 4.601003 34.249348 16.655227
2009-07-13 07:15:55 51°17.38 2°52.5 18.8294 4.601106 34.252812 16.655227
2009-07-13 07:16:01 51°17.399 2°52.494 18.8284 4.601106 34.252812 16.655227
2009-07-13 07:16:05 51°17.412 2°52.491 18.8282 4.601418 34.258008 16.550755
2009-07-13 07:16:10 51°17.428 2°52.486 18.8312 4.601418 34.261257 16.515931
2009-07-13 07:16:15 51°17.444 2°52.482 18.8272 4.60121 34.262123 16.446283
2009-07-13 07:16:20 51°17.46 2°52.477 18.8303 4.601522 34.266672 16.446283
2009-07-13 07:16:25 51°17.476 2°52.474 18.8299 4.601211 34.266022 16.515931
2009-07-13 07:16:30 51°17.492 2°52.469 18.8299 4.601211 34.266022 16.515931
2009-07-13 07:16:35 51°17.509 2°52.467 18.8295 4.601211 34.266672 16.411459
2009-07-13 07:16:40 51°17.525 2°52.463 18.8292 4.601003 34.264939 16.411459
2009-07-13 07:16:45 51°17.541 2°52.459 18.829 4.600691 34.26169 16.237338
2009-07-13 07:16:50 51°17.558 2°52.455 18.8272 4.600587 34.260823 16.306987
2009-07-13 07:16:56 51°17.577 2°52.451 18.8265 4.600795 34.263206 16.272162
2009-07-13 07:17:01 51°17.593 2°52.448 18.8281 4.600795 34.263206 16.272162
2009-07-13 07:17:05 51°17.606 2°52.445 18.8265 4.600587 34.260823 16.237338
2009-07-13 07:17:10 51°17.623 2°52.441 18.8263 4.600587 34.261473 16.132866
2009-07-13 07:17:15 51°17.639 2°52.438 18.8282 4.600068 34.25714 16.16769
2009-07-13 07:17:21 51°17.658 2°52.434 18.8239 4.599964 34.256924 16.098042
2009-07-13 07:17:25 51°17.671 2°52.432 18.8212 4.599861 34.256057 16.132866
2009-07-13 07:17:30 51°17.688 2°52.428 18.8229 4.599861 34.256057 16.132866
2009-07-13 07:17:35 51°17.704 2°52.424 18.8179 4.599964 34.257574 16.098042
2009-07-13 07:17:40 51°17.72 2°52.421 18.8165 4.599653 34.254974 16.16769
2009-07-13 07:17:45 51°17.736 2°52.418 18.8125 4.599445 34.253241 16.098042
2009-07-13 07:17:50 51°17.753 2°52.414 18.8118 4.599445 34.254541 16.063218
2009-07-13 07:17:55 51°17.769 2°52.411 18.8071 4.598926 34.252157 16.098042
2009-07-13 07:18:01 51°17.789 2°52.406 18.8065 4.598926 34.252157 16.098042
2009-07-13 07:18:05 51°17.802 2°52.404 18.8074 4.598822 34.25194 16.028394
2009-07-13 07:18:10 51°17.818 2°52.4 18.8002 4.598822 34.25389 15.99357
2009-07-13 07:18:14 51°17.831 2°52.397 18.7992 4.597992 34.248907 16.028394
2009-07-13 07:18:20 51°17.851 2°52.393 18.7953 4.598095 34.251723 15.958746
2009-07-13 07:18:25 51°17.867 2°52.39 18.7891 4.597784 34.251723 15.854274
2009-07-13 07:18:30 51°17.884 2°52.386 18.7906 4.597784 34.251723 15.854274
2009-07-13 07:18:36 51°17.903 2°52.383 18.7861 4.597888 34.25454 15.81945
2009-07-13 07:18:40 51°17.916 2°52.382 18.782 4.597265 34.251289 15.81945
2009-07-13 07:18:45 51°17.932 2°52.379 18.7832 4.597576 34.25649 15.714978
2009-07-13 07:18:50 51°17.949 2°52.377 18.7822 4.597576 34.258441 15.680154
2009-07-13 07:18:56 51°17.968 2°52.375 18.7753 4.597473 34.259525 15.680154
2009-07-13 07:19:01 51°17.985 2°52.374 18.7724 4.597473 34.259525 15.680154
2009-07-13 07:19:05 51°17.998 2°52.373 18.7685 4.597369 34.26191 15.610505
2009-07-13 07:19:10 51°18.014 2°52.374 18.7649 4.597161 34.263429 15.645329
2009-07-13 07:19:15 51°18.031 2°52.371 18.7592 4.597473 34.268633 15.610505
2009-07-13 07:19:21 51°18.05 2°52.371 18.7539 4.597161 34.268635 15.680154
2009-07-13 07:19:25 51°18.064 2°52.369 18.7528 4.596434 34.264516 15.575681
2009-07-13 07:19:30 51°18.08 2°52.371 18.748 4.596434 34.264516 15.575681
2009-07-13 07:19:36 51°18.099 2°52.369 18.7492 4.597057 34.272324 15.575681
2009-07-13 07:19:40 51°18.113 2°52.369 18.7424 4.596538 34.271893 15.575681
2009-07-13 07:19:45 51°18.129 2°52.367 18.7399 4.597681 34.284692 15.540857
2009-07-13 07:19:50 51°18.145 2°52.367 18.7383 4.597785 34.289469 15.436385
2009-07-13 07:19:56 51°18.165 2°52.365 18.7321 4.596954 34.286437 15.401561
2009-07-13 07:20:01 51°18.181 2°52.364 18.7288 4.596954 34.286437 15.401561
2009-07-13 07:20:05 51°18.195 2°52.364 18.7235 4.597058 34.291215 15.366737
2009-07-13 07:20:10 51°18.211 2°52.362 18.7168 4.596746 34.29187 15.297089
2009-07-13 07:20:16 51°18.231 2°52.362 18.7131 4.596746 34.294478 15.297089
2009-07-13 07:20:21 51°18.247 2°52.361 18.708 4.596227 34.293398 15.262265
2009-07-13 07:20:25 51°18.26 2°52.361 18.7035 4.595812 34.293838 15.262265
2009-07-13 07:20:30 51°18.276 2°52.36 18.6964 4.595812 34.293838 15.262265
2009-07-13 07:20:35 51°18.293 2°52.359 18.6897 4.595916 34.298619 15.297089
2009-07-13 07:20:41 51°18.312 2°52.358 18.6897 4.595812 34.301665 15.227441
2009-07-13 07:20:45 51°18.325 2°52.358 18.6921 4.595293 34.301238 15.227441
2009-07-13 07:20:49 51°18.338 2°52.356 18.6814 4.594878 34.302332 15.157793
2009-07-13 07:20:55 51°18.358 2°52.356 18.6785 4.593735 34.297999 15.192617
2009-07-13 07:21:00 51°18.374 2°52.355 18.6743 4.593735 34.297999 15.192617
2009-07-13 07:21:05 51°18.391 2°52.354 18.6755 4.592593 34.293012 15.122969
2009-07-13 07:21:10 51°18.407 2°52.355 18.6741 4.592074 34.294543 15.157793
2009-07-13 07:21:15 51°18.424 2°52.353 18.6692 4.591451 34.293246 15.122969
2009-07-13 07:21:20 51°18.44 2°52.354 18.6658 4.590517 34.28869 15.157793
2009-07-13 07:21:25 51°18.456 2°52.354 18.6699 4.589686 34.285002 15.088145
2009-07-13 07:21:30 51°18.473 2°52.355 18.6615 4.589686 34.285002 15.088145
2009-07-13 07:21:36 51°18.492 2°52.36 18.6577 4.588855 34.281967 15.088145
2009-07-13 07:21:40 51°18.505 2°52.362 18.6518 4.587921 34.277409 15.088145
2009-07-13 07:21:45 51°18.521 2°52.368 18.6527 4.587298 34.274152 15.018497
2009-07-13 07:21:50 51°18.537 2°52.374 18.649 4.586571 34.271332 15.018497
2009-07-13 07:21:56 51°18.556 2°52.38 18.6413 4.586156 34.269813 15.018497
2009-07-13 07:22:01 51°18.571 2°52.388 18.6461 4.586156 34.269813 15.018497
2009-07-13 07:22:05 51°18.584 2°52.392 18.6425 4.585325 34.266123 15.053321
2009-07-13 07:22:10 51°18.6 2°52.4 18.6381 4.584702 34.262865 15.088145
2009-07-13 07:22:14 51°18.612 2°52.405 18.6388 4.584079 34.261566 15.018497
2009-07-13 07:22:21 51°18.634 2°52.416 18.636 4.583248 34.257222 14.983672
2009-07-13 07:22:25 51°18.647 2°52.422 18.6326 4.582625 34.255269 14.983672
2009-07-13 07:22:30 51°18.662 2°52.429 18.632 4.582625 34.255269 14.983672
2009-07-13 07:22:34 51°18.675 2°52.436 18.6254 4.581795 34.251577 14.983672
2009-07-13 07:22:41 51°18.697 2°52.447 18.6294 4.581172 34.248318 15.018497
2009-07-13 07:22:45 51°18.709 2°52.453 18.6242 4.580549 34.245712 15.018497
2009-07-13 07:22:50 51°18.725 2°52.461 18.6254 4.580029 34.243322 15.053321
2009-07-13 07:22:56 51°18.743 2°52.472 18.623 4.579303 34.239192 15.018497
2009-07-13 07:23:01 51°18.759 2°52.479 18.6193 4.579303 34.239192 15.018497
2009-07-13 07:23:05 51°18.771 2°52.486 18.619 4.578887 34.238325 15.053321
2009-07-13 07:23:10 51°18.787 2°52.493 18.6183 4.578057 34.233325 15.053321
2009-07-13 07:23:15 51°18.803 2°52.502 18.6192 4.577537 34.230934 15.053321
2009-07-13 07:23:20 51°18.819 2°52.51 18.6144 4.577122 34.228761 15.018497
2009-07-13 07:23:25 51°18.834 2°52.518 18.6146 4.576603 34.227023 15.018497
2009-07-13 07:23:30 51°18.85 2°52.527 18.6115 4.576603 34.227023 15.018497
2009-07-13 07:23:36 51°18.869 2°52.537 18.6144 4.576291 34.225719 15.053321
2009-07-13 07:23:41 51°18.885 2°52.546 18.6114 4.57598 34.224414 15.088145
2009-07-13 07:23:45 51°18.897 2°52.552 18.6066 4.575461 34.222023 15.018497
2009-07-13 07:23:50 51°18.913 2°52.56 18.6058 4.575149 34.220719 15.053321
2009-07-13 07:23:56 51°18.932 2°52.57 18.6071 4.574734 34.217891 14.983672
2009-07-13 07:24:01 51°18.947 2°52.578 18.6081 4.574734 34.217891 14.983672
2009-07-13 07:24:05 51°18.96 2°52.585 18.6054 4.574319 34.21637 14.983672
2009-07-13 07:24:10 51°18.976 2°52.592 18.6028 4.573903 34.214195 14.948848
2009-07-13 07:24:14 51°18.988 2°52.6 18.6021 4.573592 34.212891 14.8792
2009-07-13 07:24:21 51°19.011 2°52.611 18.6023 4.57328 34.212239 14.914024
2009-07-13 07:24:25 51°19.023 2°52.617 18.6051 4.572969 34.210281 14.914024
2009-07-13 07:24:30 51°19.039 2°52.625 18.6028 4.572969 34.210281 14.914024
2009-07-13 07:24:35 51°19.055 2°52.633 18.6 4.572761 34.2105 14.948848
2009-07-13 07:24:41 51°19.073 2°52.643 18.6014 4.57245 34.207889 14.8792
2009-07-13 07:24:45 51°19.086 2°52.648 18.6025 4.572242 34.208107 14.844376
2009-07-13 07:24:50 51°19.102 2°52.657 18.5991 4.572034 34.20702 14.844376
2009-07-13 07:24:55 51°19.117 2°52.665 18.5984 4.572034 34.20702 14.844376
2009-07-13 07:25:01 51°19.136 2°52.673 18.5989 4.572034 34.20702 14.844376
2009-07-13 07:25:05 51°19.149 2°52.68 18.5994 4.571827 34.205932 14.809552
2009-07-13 07:25:09 51°19.161 2°52.686 18.5953 4.571723 34.205715 14.809552
2009-07-13 07:25:15 51°19.18 2°52.696 18.5951 4.571723 34.205715 14.774728
2009-07-13 07:25:21 51°19.199 2°52.704 18.5944 4.571619 34.205497 14.70508
2009-07-13 07:25:25 51°19.212 2°52.712 18.5916 4.571619 34.206804 14.670256
2009-07-13 07:25:29 51°19.224 2°52.717 18.5945 4.571619 34.206804 14.670256
2009-07-13 07:25:35 51°19.243 2°52.725 18.5922 4.571619 34.20811 14.70508
2009-07-13 07:25:40 51°19.259 2°52.734 18.5955 4.571619 34.20811 14.670256
2009-07-13 07:25:45 51°19.275 2°52.74 18.5951 4.571619 34.209416 14.70508
2009-07-13 07:25:50 51°19.291 2°52.749 18.5969 4.571619 34.210722 14.670256
2009-07-13 07:25:55 51°19.307 2°52.755 18.5953 4.571619 34.211376 14.670256
2009-07-13 07:26:00 51°19.322 2°52.763 18.594 4.571619 34.211376 14.670256
2009-07-13 07:26:05 51°19.338 2°52.77 18.5971 4.571619 34.212682 14.670256
2009-07-13 07:26:10 51°19.354 2°52.778 18.5979 4.571723 34.213553 14.635432
2009-07-13 07:26:16 51°19.373 2°52.786 18.5987 4.571827 34.21377 14.600608
2009-07-13 07:26:20 51°19.386 2°52.793 18.5984 4.571827 34.21377 14.635432
2009-07-13 07:26:25 51°19.401 2°52.8 18.5983 4.571827 34.21377 14.670256
2009-07-13 07:26:30 51°19.417 2°52.807 18.5968 4.571827 34.21377 14.670256
2009-07-13 07:26:36 51°19.436 2°52.816 18.6007 4.572034 34.214858 14.635432
2009-07-13 07:26:41 51°19.452 2°52.824 18.602 4.572138 34.215728 14.670256
2009-07-13 07:26:45 51°19.465 2°52.828 18.6019 4.572346 34.216163 14.670256
2009-07-13 07:26:50 51°19.48 2°52.836 18.6051 4.57245 34.217033 14.670256
2009-07-13 07:26:56 51°19.499 2°52.844 18.6031 4.572657 34.218774 14.70508
2009-07-13 07:27:01 51°19.515 2°52.851 18.607 4.572657 34.218774 14.70508
2009-07-13 07:27:05 51°19.527 2°52.857 18.6067 4.572865 34.220515 14.739904
2009-07-13 07:27:10 51°19.543 2°52.863 18.6056 4.573073 34.221603 14.670256
2009-07-13 07:27:15 51°19.559 2°52.872 18.6082 4.573384 34.223561 14.670256
2009-07-13 07:27:21 51°19.578 2°52.88 18.6071 4.573696 34.225519 14.670256
2009-07-13 07:27:25 51°19.59 2°52.886 18.6101 4.574007 34.226823 14.70508
2009-07-13 07:27:30 51°19.605 2°52.892 18.6094 4.574007 34.226823 14.70508
2009-07-13 07:27:36 51°19.624 2°52.901 18.6118 4.574423 34.228998 14.670256
2009-07-13 07:27:40 51°19.637 2°52.906 18.6132 4.574734 34.230956 14.670256
2009-07-13 07:27:45 51°19.653 2°52.914 18.6148 4.575149 34.233131 14.670256
2009-07-13 07:27:50 51°19.669 2°52.921 18.6128 4.575461 34.235088 14.670256
2009-07-13 07:27:56 51°19.688 2°52.929 18.6171 4.575876 34.237916 14.670256
2009-07-13 07:28:01 51°19.704 2°52.935 18.6181 4.575876 34.237916 14.670256
2009-07-13 07:28:05 51°19.716 2°52.942 18.6205 4.576084 34.239004 14.670256
2009-07-13 07:28:10 51°19.732 2°52.947 18.6233 4.576396 34.240961 14.70508
2009-07-13 07:28:16 51°19.751 2°52.957 18.6198 4.576811 34.243136 14.774728
2009-07-13 07:28:21 51°19.767 2°52.963 18.6224 4.577226 34.245963 14.774728
2009-07-13 07:28:25 51°19.779 2°52.969 18.623 4.577642 34.248138 14.809552
2009-07-13 07:28:30 51°19.795 2°52.977 18.6262 4.577642 34.248138 14.809552
2009-07-13 07:28:35 51°19.811 2°52.982 18.6271 4.578057 34.250312 14.844376
2009-07-13 07:28:41 51°19.829 2°52.993 18.6309 4.578576 34.252702 14.8792
2009-07-13 07:28:45 51°19.841 2°52.998 18.6327 4.579095 34.255746 14.8792
2009-07-13 07:28:49 51°19.854 2°53.003 18.6373 4.579718 34.25966 14.948848
2009-07-13 07:28:55 51°19.872 2°53.013 18.6387 4.580134 34.262488 15.018497
2009-07-13 07:29:01 51°19.891 2°53.021 18.6418 4.580134 34.262488 15.018497
2009-07-13 07:29:05 51°19.903 2°53.026 18.6448 4.580653 34.265531 15.018497
2009-07-13 07:29:10 51°19.919 2°53.035 18.6449 4.581068 34.267705 15.053321
2009-07-13 07:29:15 51°19.934 2°53.041 18.6492 4.581483 34.269224 15.053321
2009-07-13 07:29:20 51°19.95 2°53.05 18.6526 4.582003 34.271613 15.122969
2009-07-13 07:29:25 51°19.965 2°53.057 18.6544 4.582418 34.272479 15.122969
2009-07-13 07:29:30 51°19.981 2°53.065 18.6595 4.582418 34.272479 15.122969
2009-07-13 07:29:35 51°19.997 2°53.073 18.6643 4.582937 34.274214 15.157793
2009-07-13 07:29:41 51°20.015 2°53.082 18.6698 4.583145 34.273339 15.122969
2009-07-13 07:29:45 51°20.028 2°53.089 18.6745 4.583456 34.273988 15.157793
2009-07-13 07:29:50 51°20.044 2°53.097 18.6786 4.583664 34.273113 15.227441
2009-07-13 07:29:55 51°20.059 2°53.105 18.6831 4.583664 34.270499 15.297089
2009-07-13 07:30:00 51°20.075 2°53.114 18.6875 4.583664 34.270499 15.297089
2009-07-13 07:30:05 51°20.091 2°53.12 18.6919 4.583456 34.265493 15.297089
2009-07-13 07:30:10 51°20.106 2°53.13 18.6968 4.583041 34.257442 15.297089
2009-07-13 07:30:15 51°20.121 2°53.138 18.7042 4.58221 34.246568 15.331913
2009-07-13 07:30:20 51°20.137 2°53.145 18.709 4.580652 34.22896 15.366737
2009-07-13 07:30:25 51°20.153 2°53.154 18.713 4.578991 34.212443 15.401561
2009-07-13 07:30:30 51°20.169 2°53.16 18.718 4.578991 34.212443 15.401561
2009-07-13 07:30:36 51°20.187 2°53.172 18.7214 4.545971 33.931701 15.506033
2009-07-13 07:30:41 51°20.203 2°53.177 18.7252 4.576083 34.17899 15.506033
2009-07-13 07:30:45 51°20.215 2°53.186 18.7318 4.574214 34.158147 15.540857
2009-07-13 07:30:50 51°20.231 2°53.192 18.7332 4.572656 34.139916 15.575681
2009-07-13 07:30:55 51°20.247 2°53.202 18.7378 4.571618 34.127983 15.575681
2009-07-13 07:31:01 51°20.265 2°53.21 18.7415 4.571618 34.127983 15.575681
2009-07-13 07:31:05 51°20.278 2°53.218 18.7452 4.569956 34.108895 15.610505
2009-07-13 07:31:10 51°20.293 2°53.224 18.7486 4.568814 34.094154 15.575681
2009-07-13 07:31:15 51°20.309 2°53.233 18.752 4.567464 34.078979 15.645329
2009-07-13 07:31:20 51°20.324 2°53.241 18.7542 4.566529 34.066631 15.610505
2009-07-13 07:31:25 51°20.34 2°53.248 18.7567 4.564972 34.04973 15.645329
2009-07-13 07:31:30 51°20.355 2°53.258 18.7607 4.564972 34.04973 15.645329
2009-07-13 07:31:35 51°20.371 2°53.265 18.7631 4.564452 34.042155 15.610505
2009-07-13 07:31:41 51°20.389 2°53.276 18.7647 4.562583 34.022659 15.645329
2009-07-13 07:31:45 51°20.402 2°53.282 18.7666 4.562168 34.015309 15.680154
2009-07-13 07:31:50 51°20.417 2°53.291 18.7684 4.561337 34.004493 15.714978
2009-07-13 07:31:56 51°20.436 2°53.3 18.7716 4.560402 33.994105 15.714978
2009-07-13 07:32:01 51°20.452 2°53.308 18.7744 4.560402 33.994105 15.714978
2009-07-13 07:32:05 51°20.464 2°53.314 18.7761 4.559779 33.985673 15.81945
2009-07-13 07:32:10 51°20.48 2°53.324 18.7784 4.558533 33.973335 15.784626
2009-07-13 07:32:15 51°20.495 2°53.33 18.7814 4.557599 33.962307 15.749802
2009-07-13 07:32:21 51°20.514 2°53.341 18.7848 4.557703 33.961238 15.784626
2009-07-13 07:32:25 51°20.526 2°53.347 18.7881 4.556456 33.948904 15.784626
2009-07-13 07:32:30 51°20.541 2°53.357 18.7929 4.556456 33.948904 15.784626
2009-07-13 07:32:35 51°20.557 2°53.363 18.7946 4.557079 33.950877 15.854274
2009-07-13 07:32:41 51°20.575 2°53.375 18.7993 4.556664 33.944832 15.854274
2009-07-13 07:32:45 51°20.587 2°53.38 18.8033 4.55656 33.942031 15.923922
2009-07-13 07:32:49 51°20.6 2°53.386 18.8057 4.555833 33.932745 16.063218
2009-07-13 07:32:55 51°20.618 2°53.396 18.8071 4.555314 33.925837 15.99357
2009-07-13 07:33:01 51°20.637 2°53.406 18.8112 4.555314 33.925837 15.99357
2009-07-13 07:33:05 51°20.649 2°53.414 18.8139 4.554587 33.916554 16.063218
2009-07-13 07:33:10 51°20.664 2°53.421 18.8165 4.55386 33.907917 16.098042
2009-07-13 07:33:16 51°20.683 2°53.433 18.8199 4.55303 33.897772 16.063218
2009-07-13 07:33:21 51°20.698 2°53.441 18.8224 4.552303 33.887851 16.063218
2009-07-13 07:33:25 51°20.71 2°53.448 18.8262 4.551368 33.877489 16.132866
2009-07-13 07:33:30 51°20.725 2°53.456 18.829 4.551368 33.877489 16.132866
2009-07-13 07:33:35 51°20.741 2°53.464 18.8338 4.550537 33.867351 16.132866
2009-07-13 07:33:40 51°20.756 2°53.473 18.8356 4.549291 33.854396 16.16769
2009-07-13 07:33:45 51°20.772 2°53.48 18.8384 4.548357 33.843398 16.272162
2009-07-13 07:33:50 51°20.787 2°53.489 18.8408 4.547318 33.832178 16.272162
2009-07-13 07:33:55 51°20.802 2°53.496 18.8438 4.546799 33.824644 16.341811
2009-07-13 07:34:01 51°20.82 2°53.508 18.847 4.546799 33.824644 16.341811
2009-07-13 07:34:05 51°20.833 2°53.512 18.8485 4.545865 33.814294 16.306987
2009-07-13 07:34:10 51°20.848 2°53.522 18.8504 4.544411 33.798981 16.306987
2009-07-13 07:34:16 51°20.867 2°53.53 18.8532 4.543373 33.787129 16.341811
2009-07-13 07:34:20 51°20.879 2°53.537 18.856 4.542438 33.776786 16.376635
2009-07-13 07:34:25 51°20.894 2°53.545 18.8572 4.541607 33.766668 16.376635
2009-07-13 07:34:30 51°20.91 2°53.552 18.8585 4.541607 33.766668 16.376635
2009-07-13 07:34:36 51°20.928 2°53.563 18.86 4.540777 33.757193 16.411459
2009-07-13 07:34:41 51°20.944 2°53.57 18.863 4.539946 33.74772 16.481107
2009-07-13 07:34:45 51°20.956 2°53.576 18.8645 4.539427 33.74084 16.515931
2009-07-13 07:34:50 51°20.971 2°53.586 18.8647 4.538596 33.73137 16.515931
2009-07-13 07:34:55 51°20.987 2°53.592 18.8688 4.537765 33.722541 16.515931
2009-07-13 07:35:01 51°21.005 2°53.602 18.8724 4.537765 33.722541 16.515931
2009-07-13 07:35:05 51°21.018 2°53.608 18.8717 4.536935 33.713712 16.515931
2009-07-13 07:35:09 51°21.029 2°53.616 18.8734 4.536415 33.707477 16.585579
2009-07-13 07:35:15 51°21.048 2°53.624 18.8755 4.536104 33.70297 16.620403
2009-07-13 07:35:21 51°21.066 2°53.635 18.8781 4.535377 33.695647 16.620403
2009-07-13 07:35:25 51°21.078 2°53.641 18.8817 4.534754 33.68855 16.585579
2009-07-13 07:35:29 51°21.091 2°53.646 18.8825 4.534754 33.68855 16.585579
2009-07-13 07:35:36 51°21.112 2°53.66 18.8824 4.534339 33.683181 16.585579
2009-07-13 07:35:40 51°21.125 2°53.664 18.8851 4.533612 33.675223 16.585579
2009-07-13 07:35:45 51°21.14 2°53.672 18.8884 4.532885 33.667265 16.620403
2009-07-13 07:35:50 51°21.155 2°53.681 18.89 4.532054 33.658446 16.620403
2009-07-13 07:35:55 51°21.171 2°53.687 18.8922 4.531535 33.65158 16.655227
2009-07-13 07:36:00 51°21.186 2°53.696 18.8943 4.531535 33.65158 16.655227
2009-07-13 07:36:05 51°21.201 2°53.703 18.898 4.530912 33.645126 16.620403
2009-07-13 07:36:10 51°21.216 2°53.71 18.8994 4.530704 33.641489 16.585579
2009-07-13 07:36:15 51°21.231 2°53.721 18.9016 4.530289 33.636125 16.794523
2009-07-13 07:36:21 51°21.25 2°53.727 18.9037 4.530185 33.632715 16.759699
2009-07-13 07:36:25 51°21.262 2°53.735 18.9056 4.529666 33.62649 16.724875
2009-07-13 07:36:30 51°21.277 2°53.741 18.9069 4.529666 33.62649 16.724875
2009-07-13 07:36:35 51°21.293 2°53.749 18.9096 4.529458 33.622855 16.690051
2009-07-13 07:36:40 51°21.308 2°53.757 18.9114 4.528939 33.615996 16.690051
2009-07-13 07:36:45 51°21.323 2°53.766 18.9132 4.52842 33.609773 16.724875
2009-07-13 07:36:50 51°21.339 2°53.772 18.9139 4.528005 33.604414 16.898995
2009-07-13 07:36:56 51°21.357 2°53.783 18.9157 4.527589 33.599056 16.759699
2009-07-13 07:37:01 51°21.372 2°53.79 18.9178 4.527589 33.599056 16.759699
2009-07-13 07:37:05 51°21.385 2°53.796 18.9195 4.526966 33.591974 16.794523
2009-07-13 07:37:10 51°21.4 2°53.804 18.9211 4.526551 33.585982 16.864171
2009-07-13 07:37:15 51°21.416 2°53.811 18.9227 4.526136 33.581261 16.898995
2009-07-13 07:37:21 51°21.434 2°53.821 18.9249 4.52572 33.576541 16.829347
2009-07-13 07:37:25 51°21.446 2°53.828 18.9261 4.525305 33.570552 16.898995
2009-07-13 07:37:30 51°21.462 2°53.834 18.9275 4.525305 33.570552 16.898995
2009-07-13 07:37:35 51°21.477 2°53.843 18.9289 4.52489 33.565833 16.829347
2009-07-13 07:37:41 51°21.496 2°53.851 18.9297 4.524474 33.561114 16.829347
2009-07-13 07:37:45 51°21.508 2°53.859 18.932 4.524059 33.555762 16.864171
2009-07-13 07:37:49 51°21.52 2°53.864 18.9349 4.523644 33.55041 16.829347
2009-07-13 07:37:56 51°21.542 2°53.876 18.9364 4.523332 33.54592 16.829347
2009-07-13 07:38:00 51°21.554 2°53.882 18.938 4.523332 33.54592 16.829347
2009-07-13 07:38:05 51°21.569 2°53.891 18.9398 4.522917 33.541204 16.864171
2009-07-13 07:38:10 51°21.584 2°53.9 18.9429 4.522501 33.535854 16.794523
2009-07-13 07:38:15 51°21.6 2°53.909 18.9404 4.522086 33.531138 16.794523
2009-07-13 07:38:21 51°21.617 2°53.922 18.9426 4.521567 33.525562 16.794523
2009-07-13 07:38:25 51°21.63 2°53.928 18.9423 4.520944 33.51849 16.864171
2009-07-13 07:38:30 51°21.644 2°53.94 18.9441 4.520944 33.51849 16.864171
2009-07-13 07:38:35 51°21.659 2°53.948 18.9463 4.520529 33.513142 16.829347
2009-07-13 07:38:41 51°21.677 2°53.962 18.9478 4.520113 33.507796 16.898995
2009-07-13 07:38:45 51°21.689 2°53.969 18.946 4.519698 33.503083 16.864171
2009-07-13 07:38:50 51°21.704 2°53.98 18.9479 4.519075 33.496648 16.864171
2009-07-13 07:38:55 51°21.719 2°53.991 18.9479 4.518452 33.490846 16.898995
2009-07-13 07:39:00 51°21.734 2°54.002 18.9476 4.518452 33.490846 16.898995
2009-07-13 07:39:05 51°21.748 2°54.012 18.9481 4.51814 33.486996 16.898995
2009-07-13 07:39:10 51°21.763 2°54.024 18.9476 4.517829 33.483146 17.003468
2009-07-13 07:39:16 51°21.781 2°54.037 18.9484 4.517414 33.479068 16.968644
2009-07-13 07:39:21 51°21.795 2°54.048 18.9491 4.516791 33.473268 16.933819
2009-07-13 07:39:25 51°21.807 2°54.056 18.9491 4.516271 33.468329 16.933819
2009-07-13 07:39:30 51°21.822 2°54.068 18.9492 4.516271 33.468329 16.933819
2009-07-13 07:39:36 51°21.84 2°54.081 18.9518 4.515648 33.46253 17.003468
2009-07-13 07:39:41 51°21.854 2°54.092 18.953 4.514922 33.455869 17.073116
2009-07-13 07:39:45 51°21.865 2°54.102 18.9531 4.51378 33.446397 17.10794
2009-07-13 07:39:50 51°21.881 2°54.111 18.9546 4.513053 33.440369 17.10794
2009-07-13 07:39:56 51°21.898 2°54.125 18.954 4.511911 33.430266 17.177588
2009-07-13 07:40:00 51°21.91 2°54.133 18.9569 4.511911 33.430266 17.177588
2009-07-13 07:40:05 51°21.924 2°54.145 18.9539 4.51108 33.422746 17.142764
2009-07-13 07:40:10 51°21.939 2°54.155 18.9538 4.510561 33.41781 17.142764
2009-07-13 07:40:16 51°21.957 2°54.169 18.9547 4.509938 33.411382 17.212412
2009-07-13 07:40:21 51°21.971 2°54.179 18.9541 4.5089 33.402142 17.247236
2009-07-13 07:40:25 51°21.983 2°54.188 18.9523 4.508173 33.395485 17.177588
2009-07-13 07:40:30 51°21.998 2°54.198 18.9528 4.508173 33.395485 17.177588
2009-07-13 07:40:36 51°22.015 2°54.213 18.9563 4.507446 33.388829 17.177588
2009-07-13 07:40:41 51°22.03 2°54.222 18.9559 4.506408 33.379591 17.212412
2009-07-13 07:40:45 51°22.041 2°54.232 18.9539 4.50537 33.370984 17.316884
2009-07-13 07:40:50 51°22.056 2°54.243 18.9536 4.504539 33.363469 17.212412
2009-07-13 07:40:56 51°22.074 2°54.257 18.9534 4.503605 33.356354 17.212412
2009-07-13 07:41:01 51°22.088 2°54.268 18.9545 4.503605 33.356354 17.212412
2009-07-13 07:41:05 51°22.099 2°54.277 18.9543 4.502567 33.347748 17.247236
2009-07-13 07:41:10 51°22.114 2°54.288 18.9564 4.501736 33.340863 17.247236
2009-07-13 07:41:15 51°22.128 2°54.3 18.9544 4.500802 33.332489 17.212412
2009-07-13 07:41:21 51°22.146 2°54.313 18.9549 4.499763 33.323884 17.28206
2009-07-13 07:41:25 51°22.158 2°54.324 18.9551 4.498933 33.31763 17.316884
2009-07-13 07:41:29 51°22.169 2°54.333 18.9546 4.498933 33.31763 17.316884
2009-07-13 07:41:35 51°22.186 2°54.348 18.9539 4.49831 33.311838 17.351708
2009-07-13 07:41:41 51°22.204 2°54.361 18.9597 4.497583 33.305815 17.351708
2009-07-13 07:41:45 51°22.215 2°54.372 18.9573 4.496752 33.298932 17.421356
2009-07-13 07:41:50 51°22.229 2°54.385 18.9546 4.495922 33.291421 17.491004
2009-07-13 07:41:55 51°22.243 2°54.397 18.955 4.495195 33.285399 17.525828
2009-07-13 07:42:00 51°22.257 2°54.411 18.9558 4.495195 33.285399 17.525828
2009-07-13 07:42:05 51°22.271 2°54.423 18.9539 4.494365 33.278517 17.560652
2009-07-13 07:42:10 51°22.285 2°54.436 18.9554 4.493638 33.272495 17.560652
2009-07-13 07:42:16 51°22.301 2°54.453 18.9561 4.493223 33.267797 17.595476
2009-07-13 07:42:21 51°22.315 2°54.466 18.9536 4.492703 33.263496 17.595476
2009-07-13 07:42:25 51°22.326 2°54.477 18.9543 4.49125 33.251454 17.630301
2009-07-13 07:42:30 51°22.339 2°54.492 18.9575 4.49125 33.251454 17.630301
2009-07-13 07:42:36 51°22.356 2°54.507 18.9567 4.490523 33.246062 17.595476
2009-07-13 07:42:41 51°22.369 2°54.523 18.9542 4.489796 33.240041 17.595476
2009-07-13 07:42:45 51°22.38 2°54.533 18.9556 4.489174 33.234881 17.595476
2009-07-13 07:42:50 51°22.393 2°54.548 18.9546 4.488551 33.22972 17.665125
2009-07-13 07:42:55 51°22.406 2°54.563 18.9527 4.487824 33.224328 17.595476
2009-07-13 07:43:01 51°22.422 2°54.58 18.9525 4.487824 33.224328 17.595476
2009-07-13 07:43:05 51°22.432 2°54.593 18.9513 4.487512 33.22112 17.630301
2009-07-13 07:43:10 51°22.445 2°54.608 18.9514 4.487097 33.217053 17.699949
2009-07-13 07:43:16 51°22.461 2°54.626 18.9502 4.486682 33.21424 17.630301
2009-07-13 07:43:21 51°22.474 2°54.641 18.9506 4.486163 33.20994 17.630301
2009-07-13 07:43:25 51°22.484 2°54.654 18.9495 4.485644 33.206268 17.699949
2009-07-13 07:43:30 51°22.498 2°54.668 18.9496 4.485644 33.206268 17.699949
2009-07-13 07:43:35 51°22.511 2°54.683 18.9491 4.485125 33.202595 17.839245
2009-07-13 07:43:41 51°22.527 2°54.7 18.9505 4.484294 33.196343 17.874069
2009-07-13 07:43:45 51°22.538 2°54.711 18.9485 4.483567 33.19095 17.839245
2009-07-13 07:43:50 51°22.551 2°54.726 18.9487 4.482737 33.184698 17.908893
2009-07-13 07:43:55 51°22.565 2°54.74 18.9492 4.482218 33.181025 17.874069
2009-07-13 07:44:00 51°22.579 2°54.754 18.949 4.482218 33.181025 17.874069
2009-07-13 07:44:05 51°22.593 2°54.768 18.9496 4.481699 33.177352 18.013365
2009-07-13 07:44:10 51°22.606 2°54.782 18.9482 4.481283 33.173913 18.013365
2009-07-13 07:44:16 51°22.623 2°54.798 18.9483 4.480764 33.169613 17.978541
2009-07-13 07:44:20 51°22.634 2°54.809 18.9509 4.480245 33.16594 17.908893
2009-07-13 07:44:25 51°22.647 2°54.823 18.9483 4.479726 33.161641 17.943717
2009-07-13 07:44:30 51°22.661 2°54.836 18.9481 4.479726 33.161641 17.943717
2009-07-13 07:44:36 51°22.677 2°54.854 18.9521 4.479311 33.157575 17.908893
2009-07-13 07:44:41 51°22.692 2°54.865 18.9513 4.478999 33.154996 17.908893
2009-07-13 07:44:45 51°22.702 2°54.878 18.9476 4.478584 33.151556 17.908893
2009-07-13 07:44:50 51°22.716 2°54.889 18.9471 4.477754 33.144678 17.943717
2009-07-13 07:44:55 51°22.729 2°54.903 18.95 4.47765 33.143192 17.839245
2009-07-13 07:45:01 51°22.746 2°54.92 18.9488 4.47765 33.143192 17.839245
2009-07-13 07:45:05 51°22.757 2°54.93 18.9454 4.476612 33.135221 17.943717
2009-07-13 07:45:10 51°22.771 2°54.944 18.9469 4.476508 33.133735 17.908893
2009-07-13 07:45:15 51°22.785 2°54.957 18.9461 4.475885 33.129202 17.874069
2009-07-13 07:45:21 51°22.801 2°54.974 18.9482 4.475158 33.122559 17.769597
2009-07-13 07:45:25 51°22.812 2°54.985 18.9466 4.47412 33.114588 17.804421
2009-07-13 07:45:29 51°22.823 2°54.996 18.9462 4.47412 33.114588 17.804421
2009-07-13 07:45:35 51°22.84 2°55.011 18.9467 4.473809 33.112009 17.804421
2009-07-13 07:45:41 51°22.857 2°55.028 18.945 4.473186 33.107476 17.734773
2009-07-13 07:45:45 51°22.868 2°55.038 18.9464 4.472459 33.102084 17.769597
2009-07-13 07:45:50 51°22.882 2°55.052 18.9481 4.472251 33.100365 17.699949
2009-07-13 07:45:56 51°22.899 2°55.068 18.9493 4.47194 33.098411 17.734773
2009-07-13 07:46:01 51°22.913 2°55.08 18.9461 4.47194 33.098411 17.734773
2009-07-13 07:46:05 51°22.924 2°55.092 18.948 4.471525 33.094348 17.769597
2009-07-13 07:46:10 51°22.938 2°55.105 18.9456 4.471006 33.090675 17.699949
2009-07-13 07:46:15 51°22.952 2°55.119 18.9452 4.469552 33.078641 17.734773
2009-07-13 07:46:20 51°22.967 2°55.131 18.9462 4.469552 33.078641 17.734773
2009-07-13 07:46:25 51°22.98 2°55.146 18.9459 4.469864 33.080595 17.699949
2009-07-13 07:46:31 51°22.997 2°55.161 18.9456 4.469864 33.080595 17.699949
2009-07-13 07:46:36 51°23.011 2°55.175 18.9468 4.469552 33.078016 17.665125
2009-07-13 07:46:40 51°23.022 2°55.185 18.9483 4.469448 33.077156 17.595476
2009-07-13 07:46:45 51°23.036 2°55.2 18.947 4.468514 33.069421 17.630301
2009-07-13 07:46:50 51°23.051 2°55.211 18.9479 4.467787 33.064029 17.560652
2009-07-13 07:46:54 51°23.061 2°55.223 18.9461 4.467372 33.060591 17.595476
2009-07-13 07:47:01 51°23.081 2°55.242 18.9521 4.467372 33.060591 17.595476
2009-07-13 07:47:05 51°23.092 2°55.252 18.9505 4.467061 33.058013 17.560652
2009-07-13 07:47:10 51°23.105 2°55.268 18.9498 4.467061 33.058013 17.560652
2009-07-13 07:47:16 51°23.123 2°55.282 18.9492 4.467268 33.059107 17.45618
2009-07-13 07:47:21 51°23.136 2°55.298 18.9526 4.467268 33.058483 17.421356
2009-07-13 07:47:25 51°23.147 2°55.309 18.9481 4.467061 33.056764 17.386532
2009-07-13 07:47:30 51°23.161 2°55.322 18.9481 4.467061 33.056764 17.386532
2009-07-13 07:47:35 51°23.175 2°55.336 18.9487 4.466957 33.05528 17.421356
2009-07-13 07:47:41 51°23.191 2°55.353 18.9466 4.466749 33.052937 17.351708
2009-07-13 07:47:45 51°23.203 2°55.364 18.9476 4.466541 33.051218 17.351708
2009-07-13 07:47:50 51°23.216 2°55.379 18.9469 4.46623 33.04864 17.351708
2009-07-13 07:47:56 51°23.233 2°55.395 18.9461 4.466126 33.04778 17.28206
2009-07-13 07:48:00 51°23.244 2°55.407 18.9466 4.466126 33.04778 17.28206
2009-07-13 07:48:05 51°23.258 2°55.42 18.95 4.465919 33.046062 17.28206
2009-07-13 07:48:10 51°23.271 2°55.436 18.9462 4.465607 33.044108 17.28206
2009-07-13 07:48:16 51°23.289 2°55.45 18.9497 4.465399 33.043013 17.316884
2009-07-13 07:48:21 51°23.301 2°55.467 18.9471 4.464984 33.039576 17.247236
2009-07-13 07:48:25 51°23.313 2°55.475 18.9478 4.463427 33.026686 17.177588
2009-07-13 07:48:30 51°23.327 2°55.489 18.9488 4.463427 33.026686 17.177588
2009-07-13 07:48:36 51°23.344 2°55.505 18.9488 4.463738 33.029888 17.212412
2009-07-13 07:48:41 51°23.357 2°55.52 18.9485 4.463531 33.028169 17.212412
2009-07-13 07:48:45 51°23.369 2°55.53 18.949 4.46405 33.031842 17.177588
2009-07-13 07:48:50 51°23.383 2°55.544 18.9476 4.463946 33.030982 17.177588
2009-07-13 07:48:55 51°23.397 2°55.556 18.9469 4.463323 33.025203 17.177588
2009-07-13 07:49:01 51°23.413 2°55.574 18.9444 4.463323 33.025203 17.177588
2009-07-13 07:49:05 51°23.425 2°55.582 18.9451 4.463116 33.023484 17.177588
2009-07-13 07:49:10 51°23.439 2°55.598 18.9424 4.463531 33.026297 17.212412
2009-07-13 07:49:15 51°23.453 2°55.61 18.9452 4.461766 33.012314 17.177588
2009-07-13 07:49:21 51°23.469 2°55.627 18.9436 4.463219 33.024967 17.212412
2009-07-13 07:49:25 51°23.481 2°55.638 18.9442 4.463116 33.023484 17.142764
2009-07-13 07:49:30 51°23.495 2°55.651 18.9412 4.463116 33.023484 17.142764
2009-07-13 07:49:35 51°23.509 2°55.665 18.9415 4.462908 33.022389 17.212412
2009-07-13 07:49:41 51°23.526 2°55.68 18.9399 4.462804 33.022778 17.28206
2009-07-13 07:49:45 51°23.537 2°55.692 18.9423 4.461766 33.015432 17.177588
2009-07-13 07:49:50 51°23.551 2°55.705 18.9431 4.461143 33.010276 17.316884
2009-07-13 07:49:55 51°23.565 2°55.719 18.9402 4.461558 33.014337 17.247236
2009-07-13 07:50:01 51°23.582 2°55.736 18.9396 4.461558 33.014337 17.247236
2009-07-13 07:50:05 51°23.594 2°55.746 18.9395 4.461662 33.015196 17.212412
2009-07-13 07:50:10 51°23.607 2°55.761 18.9413 4.460624 33.007227 17.177588
2009-07-13 07:50:15 51°23.622 2°55.773 18.9403 4.460832 33.009569 17.212412
2009-07-13 07:50:20 51°23.636 2°55.787 18.9427 4.461766 33.017303 17.142764
2009-07-13 07:50:25 51°23.649 2°55.801 18.9433 4.461558 33.016208 17.142764
2009-07-13 07:50:31 51°23.667 2°55.815 18.943 4.461558 33.016208 17.142764
2009-07-13 07:50:35 51°23.677 2°55.828 18.942 4.461351 33.014489 17.177588
2009-07-13 07:50:40 51°23.691 2°55.84 18.9417 4.461143 33.013394 17.10794
2009-07-13 07:50:45 51°23.705 2°55.853 18.9424 4.461143 33.013394 17.073116
2009-07-13 07:50:50 51°23.718 2°55.868 18.9432 4.461039 33.012535 17.038292
2009-07-13 07:50:56 51°23.735 2°55.884 18.9458 4.460936 33.011052 17.038292
2009-07-13 07:51:01 51°23.749 2°55.895 18.9474 4.460936 33.011052 17.038292
2009-07-13 07:51:05 51°23.76 2°55.907 18.9453 4.460936 33.010428 17.073116
2009-07-13 07:51:10 51°23.773 2°55.921 18.9438 4.461039 33.011288 17.038292
2009-07-13 07:51:15 51°23.788 2°55.933 18.9435 4.460936 33.009805 16.968644
2009-07-13 07:51:21 51°23.805 2°55.95 18.9427 4.460832 33.008945 16.968644
2009-07-13 07:51:25 51°23.816 2°55.96 18.9407 4.46052 33.005744 17.038292
2009-07-13 07:51:30 51°23.83 2°55.974 18.9416 4.46052 33.005744 17.038292
2009-07-13 07:51:36 51°23.847 2°55.99 18.9415 4.460416 33.003638 17.003468
2009-07-13 07:51:41 51°23.861 2°56.004 18.9418 4.460105 33.00106 17.003468
2009-07-13 07:51:45 51°23.873 2°56.013 18.9435 4.459794 32.998482 17.073116
2009-07-13 07:51:50 51°23.886 2°56.029 18.9443 4.459275 32.994809 17.038292
2009-07-13 07:51:55 51°23.901 2°56.038 18.9476 4.459067 32.993714 17.073116
2009-07-13 07:52:01 51°23.917 2°56.057 18.9436 4.459067 32.993714 17.073116
2009-07-13 07:52:05 51°23.929 2°56.066 18.9429 4.458755 32.99176 17.10794
2009-07-13 07:52:10 51°23.943 2°56.08 18.9412 4.458444 32.989182 17.177588
2009-07-13 07:52:15 51°23.957 2°56.094 18.9438 4.458236 32.987464 17.142764
2009-07-13 07:52:21 51°23.974 2°56.11 18.9395 4.458029 32.985745 17.177588
2009-07-13 07:52:25 51°23.986 2°56.121 18.9413 4.457925 32.98364 17.177588
2009-07-13 07:52:30 51°24.001 2°56.134 18.9408 4.457925 32.98364 17.177588
2009-07-13 07:52:35 51°24.015 2°56.149 18.9426 4.457613 32.980439 17.10794
2009-07-13 07:52:41 51°24.032 2°56.163 18.9425 4.457302 32.978485 17.142764
2009-07-13 07:52:45 51°24.043 2°56.176 18.9416 4.456887 32.975671 17.177588
2009-07-13 07:52:51 51°24.06 2°56.191 18.942 4.456472 32.972857 17.142764
2009-07-13 07:52:55 51°24.071 2°56.203 18.9438 4.456056 32.970043 17.142764
2009-07-13 07:53:01 51°24.088 2°56.218 18.944 4.456056 32.970043 17.142764
2009-07-13 07:53:05 51°24.099 2°56.23 18.9425 4.455849 32.968948 17.10794
2009-07-13 07:53:11 51°24.116 2°56.245 18.9432 4.455537 32.965748 17.10794
2009-07-13 07:53:15 51°24.127 2°56.257 18.9435 4.45533 32.963407 17.212412
2009-07-13 07:53:21 51°24.144 2°56.272 18.9437 4.455018 32.961452 17.212412
2009-07-13 07:53:25 51°24.156 2°56.282 18.9446 4.454811 32.959111 17.177588
2009-07-13 07:53:30 51°24.17 2°56.297 18.9438 4.454811 32.959111 17.177588
2009-07-13 07:53:36 51°24.187 2°56.312 18.9458 4.454603 32.95677 17.142764
2009-07-13 07:53:41 51°24.201 2°56.327 18.9446 4.454395 32.954429 17.177588
2009-07-13 07:53:45 51°24.212 2°56.337 18.9458 4.454084 32.952475 17.177588
2009-07-13 07:53:50 51°24.226 2°56.351 18.9444 4.45398 32.950993 17.177588
2009-07-13 07:53:55 51°24.24 2°56.364 18.9445 4.453876 32.950134 17.177588
2009-07-13 07:54:01 51°24.257 2°56.382 18.9467 4.453876 32.950134 17.177588
2009-07-13 07:54:05 51°24.269 2°56.391 18.9478 4.453772 32.948653 17.212412
2009-07-13 07:54:11 51°24.284 2°56.41 18.9446 4.453669 32.947794 17.247236
2009-07-13 07:54:15 51°24.296 2°56.419 18.9423 4.453669 32.947171 17.212412
2009-07-13 07:54:21 51°24.312 2°56.437 18.9427 4.453565 32.946312 17.212412
2009-07-13 07:54:25 51°24.324 2°56.448 18.9424 4.453461 32.946076 17.177588
2009-07-13 07:54:30 51°24.338 2°56.461 18.9448 4.453461 32.946076 17.177588
2009-07-13 07:54:35 51°24.352 2°56.475 18.9439 4.453357 32.944594 17.142764
2009-07-13 07:54:41 51°24.369 2°56.492 18.9431 4.453253 32.943735 17.212412
2009-07-13 07:54:45 51°24.381 2°56.501 18.9421 4.453253 32.943735 17.28206
2009-07-13 07:54:50 51°24.394 2°56.515 18.9437 4.453046 32.94264 17.247236
2009-07-13 07:54:55 51°24.408 2°56.53 18.9415 4.453046 32.943262 17.247236
2009-07-13 07:55:01 51°24.425 2°56.546 18.9452 4.453046 32.943262 17.247236
2009-07-13 07:55:05 51°24.436 2°56.557 18.9423 4.452942 32.942403 17.177588
2009-07-13 07:55:10 51°24.451 2°56.569 18.9441 4.452942 32.942403 17.142764
2009-07-13 07:55:15 51°24.464 2°56.584 18.9443 4.452942 32.942403 17.177588
2009-07-13 07:55:21 51°24.48 2°56.601 18.9406 4.452942 32.942403 17.177588
2009-07-13 07:55:25 51°24.492 2°56.61 18.9412 4.453046 32.943262 17.212412
2009-07-13 07:55:29 51°24.503 2°56.622 18.9416 4.453046 32.943262 17.212412
2009-07-13 07:55:35 51°24.52 2°56.637 18.9414 4.453046 32.943884 17.142764
2009-07-13 07:55:41 51°24.536 2°56.655 18.9421 4.45315 32.944121 17.142764
2009-07-13 07:55:45 51°24.547 2°56.665 18.9411 4.453357 32.945839 17.142764
2009-07-13 07:55:50 51°24.561 2°56.679 18.9474 4.453565 32.947557 17.073116
2009-07-13 07:55:56 51°24.578 2°56.694 18.94 4.453772 32.949275 17.073116
2009-07-13 07:56:01 51°24.591 2°56.711 18.9351 4.453772 32.949275 17.073116
2009-07-13 07:56:05 51°24.603 2°56.718 18.9365 4.453876 32.950134 17.073116
2009-07-13 07:56:10 51°24.617 2°56.733 18.9375 4.45398 32.950993 17.10794
2009-07-13 07:56:15 51°24.631 2°56.746 18.9332 4.454188 32.953334 17.10794
2009-07-13 07:56:21 51°24.648 2°56.763 18.9315 4.454292 32.95357 17.038292
2009-07-13 07:56:25 51°24.659 2°56.775 18.9301 4.454603 32.956148 17.038292
2009-07-13 07:56:30 51°24.674 2°56.787 18.9288 4.454603 32.956148 17.038292
2009-07-13 07:56:35 51°24.687 2°56.802 18.9285 4.454707 32.958252 17.003468
2009-07-13 07:56:41 51°24.705 2°56.816 18.9254 4.454914 32.961215 17.10794
2009-07-13 07:56:45 51°24.715 2°56.83 18.9256 4.455122 32.964179 17.142764
2009-07-13 07:56:50 51°24.73 2°56.841 18.9232 4.455226 32.966284 17.038292
2009-07-13 07:56:55 51°24.744 2°56.856 18.9193 4.45533 32.969635 17.038292
2009-07-13 07:57:01 51°24.761 2°56.871 18.9171 4.45533 32.969635 17.038292
2009-07-13 07:57:05 51°24.771 2°56.883 18.9172 4.455434 32.971117 16.968644
2009-07-13 07:57:10 51°24.785 2°56.895 18.9185 4.455641 32.974082 16.968644
2009-07-13 07:57:15 51°24.799 2°56.91 18.9153 4.455641 32.975951 17.003468
2009-07-13 07:57:21 51°24.816 2°56.924 18.9138 4.455849 32.978917 16.968644
2009-07-13 07:57:25 51°24.827 2°56.935 18.9125 4.455953 32.981023 16.968644
2009-07-13 07:57:30 51°24.84 2°56.951 18.9167 4.455953 32.981023 16.968644
2009-07-13 07:57:35 51°24.855 2°56.961 18.9163 4.455953 32.982893 16.898995
2009-07-13 07:57:41 51°24.871 2°56.98 18.9117 4.456057 32.984376 16.898995
2009-07-13 07:57:45 51°24.882 2°56.989 18.9084 4.456057 32.986246 16.864171
2009-07-13 07:57:51 51°24.899 2°57.006 18.9091 4.456057 32.98687 16.794523
2009-07-13 07:57:56 51°24.913 2°57.019 18.9038 4.455953 32.987257 16.759699
2009-07-13 07:58:01 51°24.927 2°57.032 18.9048 4.455953 32.987257 16.759699
2009-07-13 07:58:05 51°24.938 2°57.043 18.9024 4.455953 32.987881 16.620403
2009-07-13 07:58:10 51°24.952 2°57.056 18.902 4.455849 32.987645 16.620403
2009-07-13 07:58:15 51°24.966 2°57.069 18.9071 4.455745 32.988656 16.550755
2009-07-13 07:58:21 51°24.982 2°57.086 18.9014 4.455538 32.988184 16.550755
2009-07-13 07:58:25 51°24.993 2°57.095 18.9038 4.45533 32.988336 16.515931
2009-07-13 07:58:30 51°25.006 2°57.111 18.9012 4.45533 32.988336 16.515931
2009-07-13 07:58:35 51°25.021 2°57.121 18.9007 4.455226 32.9881 16.515931
2009-07-13 07:58:41 51°25.036 2°57.14 18.8997 4.454915 32.987392 16.411459
2009-07-13 07:58:45 51°25.049 2°57.147 18.8976 4.454707 32.985672 16.446283
2009-07-13 07:58:50 51°25.062 2°57.162 18.8958 4.454603 32.984812 16.376635
2009-07-13 07:58:55 51°25.076 2°57.174 18.8969 4.4545 32.984576 16.341811
2009-07-13 07:59:01 51°25.093 2°57.19 18.8945 4.4545 32.984576 16.341811
2009-07-13 07:59:05 51°25.103 2°57.201 18.8955 4.454292 32.98348 16.306987
2009-07-13 07:59:11 51°25.12 2°57.216 18.8918 4.454084 32.983008 16.272162
2009-07-13 07:59:15 51°25.13 2°57.229 18.8919 4.453877 32.981912 16.272162
2009-07-13 07:59:20 51°25.146 2°57.238 18.89 4.453669 32.98144 16.202514
2009-07-13 07:59:25 51°25.158 2°57.255 18.8874 4.453462 32.980967 16.237338
2009-07-13 07:59:30 51°25.173 2°57.266 18.8831 4.453462 32.980967 16.237338
2009-07-13 07:59:35 51°25.186 2°57.28 18.8848 4.45315 32.979011 16.202514
2009-07-13 07:59:41 51°25.203 2°57.297 18.8809 4.453046 32.978775 16.063218
2009-07-13 07:59:45 51°25.214 2°57.307 18.8777 4.452735 32.978067 16.132866
2009-07-13 07:59:50 51°25.228 2°57.321 18.8842 4.452527 32.976347 16.098042
2009-07-13 07:59:55 51°25.242 2°57.333 18.8805 4.45232 32.976498 16.028394
2009-07-13 08:00:01 51°25.258 2°57.35 18.8769 4.45232 32.976498 16.028394
2009-07-13 08:00:05 51°25.27 2°57.361 18.8799 4.452008 32.975165 16.028394
2009-07-13 08:00:10 51°25.284 2°57.373 18.8799 4.451801 32.975317 16.063218
2009-07-13 08:00:15 51°25.297 2°57.388 18.8802 4.451386 32.974372 15.958746
2009-07-13 08:00:21 51°25.314 2°57.403 18.8784 4.451178 32.973899 15.958746
2009-07-13 08:00:25 51°25.326 2°57.414 18.8792 4.451074 32.973663 15.923922
2009-07-13 08:00:30 51°25.34 2°57.427 18.8776 4.451074 32.973663 15.923922
2009-07-13 08:00:35 51°25.353 2°57.442 18.8772 4.450867 32.973191 15.923922
2009-07-13 08:00:41 51°25.371 2°57.455 18.8797 4.450763 32.972954 15.923922
2009-07-13 08:00:45 51°25.381 2°57.47 18.8768 4.450659 32.972094 15.923922
2009-07-13 08:00:50 51°25.397 2°57.479 18.8777 4.450555 32.971858 15.889098
2009-07-13 08:00:56 51°25.412 2°57.498 18.8795 4.450451 32.970998 15.889098
2009-07-13 08:01:01 51°25.427 2°57.508 18.8751 4.450451 32.970998 15.889098
2009-07-13 08:01:05 51°25.437 2°57.522 18.8822 4.450451 32.970998 15.81945
2009-07-13 08:01:09 51°25.449 2°57.531 18.8752 4.450451 32.970998 15.854274
2009-07-13 08:01:15 51°25.465 2°57.548 18.8773 4.450451 32.971622 15.81945
2009-07-13 08:01:21 51°25.482 2°57.563 18.874 4.450451 32.970998 15.854274
2009-07-13 08:01:25 51°25.493 2°57.573 18.8704 4.450555 32.971858 15.854274
2009-07-13 08:01:31 51°25.509 2°57.591 18.8714 4.450555 32.971858 15.854274
2009-07-13 08:01:35 51°25.521 2°57.599 18.8694 4.450763 32.973578 15.749802
2009-07-13 08:01:40 51°25.535 2°57.612 18.8708 4.45097 32.975299 15.784626
2009-07-13 08:01:45 51°25.548 2°57.626 18.8718 4.451178 32.977019 15.81945
2009-07-13 08:01:50 51°25.563 2°57.638 18.8681 4.451282 32.978504 15.749802
2009-07-13 08:01:56 51°25.579 2°57.654 18.8711 4.45149 32.982097 15.784626
2009-07-13 08:02:01 51°25.593 2°57.668 18.8696 4.45149 32.982097 15.784626
2009-07-13 08:02:05 51°25.604 2°57.678 18.8706 4.451593 32.98483 15.749802
2009-07-13 08:02:10 51°25.618 2°57.692 18.8724 4.451593 32.985454 15.784626
2009-07-13 08:02:16 51°25.636 2°57.707 18.8718 4.451593 32.986079 15.749802
2009-07-13 08:02:21 51°25.649 2°57.721 18.8707 4.451697 32.987563 15.714978
2009-07-13 08:02:25 51°25.661 2°57.731 18.8723 4.451801 32.988424 15.714978
2009-07-13 08:02:30 51°25.675 2°57.742 18.8723 4.451801 32.988424 15.714978
2009-07-13 08:02:35 51°25.689 2°57.758 18.8719 4.451801 32.988424 15.749802
2009-07-13 08:02:41 51°25.706 2°57.771 18.8722 4.451801 32.988424 15.714978
2009-07-13 08:02:45 51°25.716 2°57.783 18.8734 4.451905 32.989284 15.680154
2009-07-13 08:02:50 51°25.731 2°57.795 18.8737 4.452009 32.990145 15.714978
2009-07-13 08:02:55 51°25.744 2°57.809 18.8768 4.452112 32.990381 15.714978
2009-07-13 08:03:01 51°25.76 2°57.824 18.8742 4.452112 32.990381 15.714978
2009-07-13 08:03:05 51°25.771 2°57.834 18.8762 4.45149 32.984594 15.749802
2009-07-13 08:03:10 51°25.784 2°57.85 18.8803 4.448375 32.958783 15.645329
2009-07-13 08:03:15 51°25.799 2°57.86 18.8793 4.44931 32.966526 15.680154
2009-07-13 08:03:21 51°25.814 2°57.878 18.8791 4.452631 32.993434 15.714978
2009-07-13 08:03:25 51°25.826 2°57.886 18.8802 4.452631 32.99281 15.680154
2009-07-13 08:03:30 51°25.839 2°57.902 18.8833 4.452631 32.99281 15.680154
2009-07-13 08:03:35 51°25.854 2°57.913 18.8854 4.452631 32.992185 15.645329
2009-07-13 08:03:41 51°25.869 2°57.932 18.8849 4.45232 32.989604 15.645329
2009-07-13 08:03:45 51°25.881 2°57.939 18.8869 4.452112 32.986635 15.610505
2009-07-13 08:03:50 51°25.894 2°57.953 18.8877 4.451697 32.982569 15.610505
2009-07-13 08:03:55 51°25.907 2°57.967 18.8909 4.451282 32.97788 15.610505
2009-07-13 08:04:01 51°25.924 2°57.981 18.8898 4.451282 32.97788 15.610505
2009-07-13 08:04:06 51°25.938 2°57.995 18.8919 4.450659 32.97147 15.610505
2009-07-13 08:04:10 51°25.949 2°58.005 18.89 4.450244 32.967405 15.575681
2009-07-13 08:04:15 51°25.963 2°58.018 18.8923 4.449828 32.962717 15.610505
2009-07-13 08:04:20 51°25.975 2°58.033 18.8954 4.449309 32.957169 15.610505
2009-07-13 08:04:25 51°25.99 2°58.043 18.896 4.44879 32.951622 15.610505
2009-07-13 08:04:30 51°26.004 2°58.057 18.8992 4.44879 32.951622 15.610505
2009-07-13 08:04:36 51°26.021 2°58.07 18.899 4.448271 32.946075 15.680154
2009-07-13 08:04:41 51°26.034 2°58.085 18.9019 4.447752 32.940529 15.749802
2009-07-13 08:04:45 51°26.046 2°58.093 18.9015 4.447233 32.935606 15.854274
2009-07-13 08:04:50 51°26.06 2°58.107 18.9031 4.446818 32.932167 15.854274
2009-07-13 08:04:56 51°26.077 2°58.121 18.9041 4.446714 32.929438 15.923922
2009-07-13 08:05:01 51°26.091 2°58.134 18.9083 4.446714 32.929438 15.923922
2009-07-13 08:05:05 51°26.102 2°58.145 18.907 4.446403 32.925613 15.958746
2009-07-13 08:05:10 51°26.115 2°58.158 18.9089 4.445883 32.918824 16.028394
2009-07-13 08:05:15 51°26.13 2°58.168 18.9106 4.444534 32.906403 16.028394
2009-07-13 08:05:21 51°26.146 2°58.185 18.9106 4.442665 32.890308 15.99357
2009-07-13 08:05:25 51°26.158 2°58.194 18.9119 4.444326 32.902817 15.958746
2009-07-13 08:05:30 51°26.171 2°58.208 18.915 4.444326 32.902817 15.958746
2009-07-13 08:05:35 51°26.184 2°58.218 18.915 4.443703 32.896416 15.99357
2009-07-13 08:05:41 51°26.198 2°58.23 18.9159 4.443184 32.890874 15.923922
2009-07-13 08:05:45 51°26.206 2°58.237 18.918 4.442561 32.883852 15.958746
2009-07-13 08:05:50 51°26.217 2°58.246 18.9174 4.442042 32.878933 15.923922
2009-07-13 08:05:55 51°26.226 2°58.254 18.9185 4.441316 32.872297 15.889098
2009-07-13 08:06:01 51°26.237 2°58.263 18.9204 4.441316 32.872297 15.889098
2009-07-13 08:06:05 51°26.244 2°58.269 18.9218 4.440797 32.866136 15.889098
2009-07-13 08:06:10 51°26.252 2°58.276 18.924 4.44007 32.858879 15.854274
2009-07-13 08:06:15 51°26.26 2°58.283 18.9257 4.439239 32.851384 15.854274
2009-07-13 08:06:21 51°26.269 2°58.291 18.9246 4.438617 32.844988 15.854274
2009-07-13 08:06:25 51°26.274 2°58.296 18.926 4.438097 32.840072 15.854274
2009-07-13 08:06:30 51°26.281 2°58.302 18.9292 4.438097 32.840072 15.854274
2009-07-13 08:06:35 51°26.287 2°58.308 18.9301 4.437578 32.834535 15.81945
2009-07-13 08:06:41 51°26.295 2°58.314 18.9294 4.437059 32.828999 15.889098
2009-07-13 08:06:45 51°26.3 2°58.318 18.9297 4.436644 32.824323 15.854274
2009-07-13 08:06:50 51°26.306 2°58.323 18.9294 4.432077 32.785295 15.854274
2009-07-13 08:06:56 51°26.313 2°58.33 18.9305 4.434153 32.80185 15.784626
2009-07-13 08:07:01 51°26.318 2°58.334 18.9305 4.434153 32.80185 15.784626
2009-07-13 08:07:05 51°26.323 2°58.338 18.9313 4.433426 32.794599 15.749802
2009-07-13 08:07:10 51°26.328 2°58.343 18.9324 4.432907 32.789067 15.714978
2009-07-13 08:07:15 51°26.334 2°58.347 18.9329 4.43353 32.793599 15.749802
2009-07-13 08:07:21 51°26.34 2°58.352 18.9333 4.431765 32.778383 15.749802
2009-07-13 08:07:25 51°26.344 2°58.355 18.9343 4.431869 32.778622 15.714978
2009-07-13 08:07:30 51°26.349 2°58.359 18.9323 4.431869 32.778622 15.714978
2009-07-13 08:07:35 51°26.354 2°58.363 18.9333 4.431246 32.772852 15.714978
2009-07-13 08:07:41 51°26.36 2°58.367 18.935 4.432388 32.781676 15.714978
2009-07-13 08:07:45 51°26.364 2°58.37 18.9359 4.432388 32.781057 15.749802
2009-07-13 08:07:49 51°26.368 2°58.373 18.9373 4.432803 32.783252 15.784626
2009-07-13 08:07:55 51°26.373 2°58.377 18.9362 4.432595 32.781535 15.784626
2009-07-13 08:08:01 51°26.379 2°58.38 18.9369 4.432595 32.781535 15.784626
2009-07-13 08:08:05 51°26.383 2°58.383 18.9377 4.432284 32.779579 15.714978
2009-07-13 08:08:10 51°26.388 2°58.386 18.9362 4.43218 32.778101 15.749802
2009-07-13 08:08:15 51°26.392 2°58.39 18.9387 4.432076 32.776623 15.714978
2009-07-13 08:08:21 51°26.398 2°58.393 18.9384 4.431765 32.773429 15.714978
2009-07-13 08:08:25 51°26.401 2°58.396 18.9386 4.431454 32.770234 15.645329
2009-07-13 08:08:30 51°26.406 2°58.399 18.9409 4.431454 32.770234 15.645329
2009-07-13 08:08:35 51°26.41 2°58.403 18.9388 4.431038 32.766182 15.680154
2009-07-13 08:08:41 51°26.416 2°58.406 18.938 4.430727 32.763607 15.610505
2009-07-13 08:08:45 51°26.419 2°58.409 18.9396 4.430312 32.759554 15.610505
2009-07-13 08:08:51 51°26.425 2°58.412 18.9416 4.430208 32.758077 15.610505
2009-07-13 08:08:56 51°26.429 2°58.416 18.9395 4.43 32.75636 15.645329
2009-07-13 08:09:01 51°26.433 2°58.419 18.942 4.43 32.75636 15.645329
2009-07-13 08:09:05 51°26.437 2°58.421 18.9415 4.43 32.755742 15.680154
2009-07-13 08:09:10 51°26.441 2°58.424 18.9412 4.429896 32.754883 15.645329
2009-07-13 08:09:15 51°26.445 2°58.427 18.9453 4.429793 32.753406 15.610505
2009-07-13 08:09:21 51°26.451 2°58.431 18.9422 4.429585 32.75169 15.714978
2009-07-13 08:09:25 51°26.454 2°58.433 18.9424 4.429377 32.749355 15.680154
2009-07-13 08:09:30 51°26.458 2°58.436 18.9422 4.429377 32.749355 15.680154
2009-07-13 08:09:35 51°26.463 2°58.439 18.9431 4.42917 32.747638 15.714978
2009-07-13 08:09:41 51°26.468 2°58.443 18.9421 4.428962 32.745303 15.680154
2009-07-13 08:09:45 51°26.471 2°58.445 18.9405 4.428962 32.745303 15.714978
2009-07-13 08:09:50 51°26.475 2°58.448 18.9413 4.428962 32.744066 15.680154
2009-07-13 08:09:56 51°26.48 2°58.452 18.9416 4.428754 32.74235 15.749802
2009-07-13 08:10:01 51°26.485 2°58.454 18.9425 4.428754 32.74235 15.749802
2009-07-13 08:10:05 51°26.488 2°58.456 18.9434 4.428443 32.739775 15.749802
2009-07-13 08:10:10 51°26.492 2°58.46 18.9461 4.428339 32.738299 15.714978
2009-07-13 08:10:15 51°26.496 2°58.462 18.9438 4.428132 32.736583 15.714978
2009-07-13 08:10:21 51°26.502 2°58.466 18.9444 4.42782 32.734626 15.749802
2009-07-13 08:10:25 51°26.505 2°58.467 18.9431 4.427509 32.73267 15.784626
2009-07-13 08:10:30 51°26.509 2°58.47 18.9465 4.427509 32.73267 15.784626
2009-07-13 08:10:35 51°26.513 2°58.473 18.9421 4.427405 32.731194 15.749802
2009-07-13 08:10:41 51°26.518 2°58.476 18.9471 4.427301 32.730336 15.784626
2009-07-13 08:10:45 51°26.522 2°58.479 18.9466 4.427301 32.729718 15.784626
2009-07-13 08:10:50 51°26.526 2°58.481 18.9453 4.427094 32.728001 15.784626
2009-07-13 08:10:55 51°26.53 2°58.484 18.9439 4.427094 32.727383 15.81945
2009-07-13 08:11:01 51°26.535 2°58.488 18.9455 4.427094 32.727383 15.81945